ACA5 CYUL-RJAA
Flight info
| Callsign | ACA5 |
|---|---|
| Flight time | 12h 40m |
| Altitude | 31000 |
| Route | TAMKO Q903 IKNAR/N0487F320 DCT 50N076W DCT YGL DCT 57N080W 62N090W 6530N10000W/N0487F340 6730N11000W 6830N12000W 69N130W DCT ADREW DCT VOVUY DCT YUREE DCT MARCC/N0478F360 DCT 56N174E DCT NATES R220 NIKLL/N0489F370 R220 NOGAL/N0479F380 R220 NANAC Y810 OLDIV Y809 SUPOK |
| Aircraft | B77W/H-SDE1E2E3FGHIJ2J3J4J5M1RWXY/LB1D1 |
Departure
| Time | 2026-05-05 07:54 |
|---|---|
| Airport | Montreal / Pierre Elliott Trudeau International Airport (CYUL) |
Arrival
| Time | 2026-05-05 20:35 |
|---|---|
| Airport | Narita International Airport (RJAA) |
| Time | Latitude | Longitude | Altitude | Speed | Heading |
|---|---|---|---|---|---|
| 2026-05-05 07:02 | 45.45841 | -73.75587 | 110 ft | 0 kts | 6° |
| 2026-05-05 07:40 | 45.45831 | -73.75588 | 108 ft | 4 kts | 6° |
| 2026-05-05 07:41 | 45.45804 | -73.75592 | 109 ft | 3 kts | 4° |
| 2026-05-05 07:41 | 45.45783 | -73.75590 | 109 ft | 4 kts | 319° |
| 2026-05-05 07:41 | 45.45771 | -73.75560 | 108 ft | 4 kts | 281° |
| 2026-05-05 07:41 | 45.45768 | -73.75522 | 109 ft | 4 kts | 268° |
| 2026-05-05 07:42 | 45.45769 | -73.75501 | 109 ft | 0 kts | 261° |
| 2026-05-05 07:44 | 45.45762 | -73.75546 | 108 ft | 11 kts | 255° |
| 2026-05-05 07:45 | 45.45739 | -73.75652 | 107 ft | 11 kts | 252° |
| 2026-05-05 07:45 | 45.45727 | -73.75760 | 109 ft | 11 kts | 281° |
| 2026-05-05 07:45 | 45.45767 | -73.75854 | 107 ft | 11 kts | 307° |
| 2026-05-05 07:45 | 45.45823 | -73.75929 | 109 ft | 11 kts | 334° |
| 2026-05-05 07:46 | 45.45899 | -73.75952 | 108 ft | 11 kts | 354° |
| 2026-05-05 07:46 | 45.45976 | -73.75955 | 108 ft | 11 kts | 358° |
| 2026-05-05 07:46 | 45.46054 | -73.75958 | 108 ft | 11 kts | 358° |
| 2026-05-05 07:46 | 45.46117 | -73.75932 | 106 ft | 10 kts | 51° |
| 2026-05-05 07:47 | 45.46128 | -73.75834 | 106 ft | 10 kts | 89° |
| 2026-05-05 07:47 | 45.46139 | -73.75745 | 106 ft | 8 kts | 51° |
| 2026-05-05 07:47 | 45.46196 | -73.75727 | 107 ft | 9 kts | 0° |
| 2026-05-05 07:47 | 45.46255 | -73.75727 | 108 ft | 9 kts | 0° |
| 2026-05-05 07:48 | 45.46315 | -73.75721 | 109 ft | 9 kts | 7° |
| 2026-05-05 07:48 | 45.46373 | -73.75705 | 108 ft | 9 kts | 11° |
| 2026-05-05 07:48 | 45.46431 | -73.75684 | 109 ft | 9 kts | 22° |
| 2026-05-05 07:48 | 45.46478 | -73.75632 | 109 ft | 9 kts | 44° |
| 2026-05-05 07:49 | 45.46540 | -73.75547 | 109 ft | 20 kts | 43° |
| 2026-05-05 07:49 | 45.46660 | -73.75388 | 110 ft | 27 kts | 43° |
| 2026-05-05 07:49 | 45.46797 | -73.75209 | 110 ft | 27 kts | 42° |
| 2026-05-05 07:49 | 45.46934 | -73.75032 | 114 ft | 27 kts | 42° |
| 2026-05-05 07:50 | 45.47070 | -73.74853 | 114 ft | 27 kts | 43° |
| 2026-05-05 07:50 | 45.47206 | -73.74673 | 115 ft | 27 kts | 43° |
| 2026-05-05 07:50 | 45.47343 | -73.74494 | 117 ft | 27 kts | 43° |
| 2026-05-05 07:50 | 45.47480 | -73.74316 | 115 ft | 27 kts | 42° |
| 2026-05-05 07:51 | 45.47615 | -73.74141 | 115 ft | 27 kts | 42° |
| 2026-05-05 07:51 | 45.47752 | -73.73962 | 113 ft | 27 kts | 43° |
| 2026-05-05 07:51 | 45.47888 | -73.73783 | 113 ft | 27 kts | 43° |
| 2026-05-05 07:51 | 45.48024 | -73.73603 | 114 ft | 27 kts | 43° |
| 2026-05-05 07:52 | 45.48124 | -73.73472 | 112 ft | 15 kts | 42° |
| 2026-05-05 07:52 | 45.48181 | -73.73417 | 116 ft | 9 kts | 3° |
| 2026-05-05 07:52 | 45.48231 | -73.73461 | 113 ft | 9 kts | 314° |
| 2026-05-05 07:52 | 45.48272 | -73.73539 | 114 ft | 12 kts | 303° |
| 2026-05-05 07:53 | 45.48302 | -73.73615 | 117 ft | 6 kts | 276° |
| 2026-05-05 07:53 | 45.48275 | -73.73665 | 115 ft | 9 kts | 224° |
| 2026-05-05 07:53 | 45.48142 | -73.73841 | 114 ft | 57 kts | 223° |
| 2026-05-05 07:53 | 45.47646 | -73.74490 | 113 ft | 136 kts | 222° |
| 2026-05-05 07:54 | 45.46775 | -73.75626 | 115 ft | 199 kts | 223° |
| 2026-05-05 07:54 | 45.45686 | -73.77012 | 600 ft | 208 kts | 220° |
| 2026-05-05 07:54 | 45.44590 | -73.78403 | 1387 ft | 215 kts | 221° |
| 2026-05-05 07:54 | 45.43484 | -73.79853 | 2138 ft | 217 kts | 222° |
| 2026-05-05 07:55 | 45.42357 | -73.81416 | 2409 ft | 237 kts | 223° |
| 2026-05-05 07:55 | 45.41143 | -73.83111 | 2821 ft | 250 kts | 224° |
| 2026-05-05 07:55 | 45.39914 | -73.84860 | 3392 ft | 255 kts | 229° |
| 2026-05-05 07:55 | 45.39159 | -73.87145 | 3937 ft | 261 kts | 264° |
| 2026-05-05 07:56 | 45.39493 | -73.89652 | 4656 ft | 265 kts | 297° |
| 2026-05-05 07:56 | 45.40719 | -73.91633 | 5305 ft | 272 kts | 321° |
| 2026-05-05 07:56 | 45.42397 | -73.92936 | 5937 ft | 279 kts | 335° |
| 2026-05-05 07:56 | 45.44316 | -73.93548 | 6469 ft | 290 kts | 355° |
| 2026-05-05 07:57 | 45.46343 | -73.93512 | 7101 ft | 292 kts | 359° |
| 2026-05-05 07:57 | 45.48396 | -73.93368 | 7685 ft | 298 kts | 360° |
| 2026-05-05 07:57 | 45.50331 | -73.93212 | 8237 ft | 301 kts | 359° |
| 2026-05-05 07:57 | 45.52395 | -73.93067 | 8927 ft | 301 kts | 359° |
| 2026-05-05 07:58 | 45.54491 | -73.92941 | 9603 ft | 301 kts | 359° |
| 2026-05-05 07:58 | 45.56594 | -73.92836 | 10233 ft | 304 kts | 358° |
| 2026-05-05 07:58 | 45.58760 | -73.92747 | 10501 ft | 321 kts | 358° |
| 2026-05-05 07:58 | 45.61064 | -73.92665 | 10693 ft | 341 kts | 358° |
| 2026-05-05 07:59 | 45.63506 | -73.92577 | 10863 ft | 362 kts | 359° |
| 2026-05-05 07:59 | 45.66087 | -73.92483 | 11134 ft | 378 kts | 359° |
| 2026-05-05 07:59 | 45.68752 | -73.92388 | 11641 ft | 387 kts | 359° |
| 2026-05-05 07:59 | 45.71463 | -73.92289 | 12316 ft | 391 kts | 359° |
| 2026-05-05 08:00 | 45.74186 | -73.92189 | 13031 ft | 394 kts | 359° |
| 2026-05-05 08:00 | 45.76898 | -73.92090 | 13744 ft | 397 kts | 359° |
| 2026-05-05 08:00 | 45.79670 | -73.91990 | 14420 ft | 400 kts | 359° |
| 2026-05-05 08:00 | 45.82469 | -73.91892 | 15073 ft | 404 kts | 359° |
| 2026-05-05 08:01 | 45.85293 | -73.91793 | 15723 ft | 408 kts | 359° |
| 2026-05-05 08:01 | 45.88140 | -73.91692 | 16374 ft | 411 kts | 359° |
| 2026-05-05 08:01 | 45.91012 | -73.91590 | 16995 ft | 414 kts | 359° |
| 2026-05-05 08:01 | 45.93906 | -73.91488 | 17612 ft | 418 kts | 359° |
| 2026-05-05 08:02 | 45.96823 | -73.91384 | 18202 ft | 420 kts | 359° |
| 2026-05-05 08:02 | 45.99716 | -73.91280 | 18651 ft | 423 kts | 359° |
| 2026-05-05 08:02 | 46.02663 | -73.91177 | 19055 ft | 426 kts | 359° |
| 2026-05-05 08:02 | 46.05634 | -73.91245 | 19466 ft | 428 kts | 353° |
| 2026-05-05 08:03 | 46.08585 | -73.91784 | 19889 ft | 428 kts | 348° |
| 2026-05-05 08:03 | 46.11536 | -73.92454 | 20315 ft | 430 kts | 348° |
| 2026-05-05 08:03 | 46.14503 | -73.93120 | 20712 ft | 433 kts | 348° |
| 2026-05-05 08:03 | 46.17490 | -73.93770 | 21115 ft | 435 kts | 348° |
| 2026-05-05 08:04 | 46.20494 | -73.94407 | 21505 ft | 438 kts | 349° |
| 2026-05-05 08:04 | 46.23516 | -73.95043 | 21886 ft | 440 kts | 348° |
| 2026-05-05 08:04 | 46.26513 | -73.95673 | 22260 ft | 442 kts | 348° |
| 2026-05-05 08:04 | 46.29567 | -73.96317 | 22634 ft | 444 kts | 348° |
| 2026-05-05 08:05 | 46.32634 | -73.96965 | 22996 ft | 447 kts | 348° |
| 2026-05-05 08:05 | 46.35710 | -73.97617 | 23340 ft | 449 kts | 348° |
| 2026-05-05 08:05 | 46.38812 | -73.98278 | 23676 ft | 451 kts | 348° |
| 2026-05-05 08:05 | 46.41919 | -73.98948 | 24021 ft | 453 kts | 348° |
| 2026-05-05 08:06 | 46.45040 | -73.99624 | 24351 ft | 454 kts | 348° |
| 2026-05-05 08:06 | 46.48173 | -74.00304 | 24665 ft | 456 kts | 348° |
| 2026-05-05 08:06 | 46.51321 | -74.00987 | 24961 ft | 458 kts | 348° |
| 2026-05-05 08:06 | 46.54441 | -74.01665 | 25239 ft | 460 kts | 348° |
| 2026-05-05 08:07 | 46.57618 | -74.02354 | 25521 ft | 463 kts | 348° |
| 2026-05-05 08:07 | 46.60809 | -74.03047 | 25793 ft | 465 kts | 348° |
| 2026-05-05 08:07 | 46.64013 | -74.03744 | 26072 ft | 466 kts | 348° |
| 2026-05-05 08:07 | 46.67219 | -74.04443 | 26352 ft | 467 kts | 348° |
| 2026-05-05 08:08 | 46.70440 | -74.05144 | 26623 ft | 469 kts | 348° |
| 2026-05-05 08:08 | 46.73671 | -74.05849 | 26887 ft | 470 kts | 348° |
| 2026-05-05 08:08 | 46.76912 | -74.06557 | 27128 ft | 472 kts | 348° |
| 2026-05-05 08:08 | 46.80164 | -74.07268 | 27359 ft | 473 kts | 348° |
| 2026-05-05 08:09 | 46.83384 | -74.07974 | 27593 ft | 475 kts | 348° |
| 2026-05-05 08:09 | 46.86655 | -74.08691 | 27808 ft | 476 kts | 347° |
| 2026-05-05 08:09 | 46.89936 | -74.09411 | 28024 ft | 477 kts | 347° |
| 2026-05-05 08:09 | 46.93222 | -74.10135 | 28241 ft | 478 kts | 347° |
| 2026-05-05 08:10 | 46.96515 | -74.10860 | 28448 ft | 479 kts | 347° |
| 2026-05-05 08:10 | 46.99813 | -74.11585 | 28648 ft | 480 kts | 347° |
| 2026-05-05 08:10 | 47.03109 | -74.12313 | 28818 ft | 481 kts | 347° |
| 2026-05-05 08:10 | 47.06421 | -74.13044 | 28976 ft | 482 kts | 347° |
| 2026-05-05 08:11 | 47.09739 | -74.13779 | 29150 ft | 482 kts | 347° |
| 2026-05-05 08:11 | 47.13056 | -74.14513 | 29375 ft | 482 kts | 347° |
| 2026-05-05 08:11 | 47.16319 | -74.15253 | 29620 ft | 479 kts | 346° |
| 2026-05-05 08:11 | 47.19554 | -74.16323 | 29871 ft | 474 kts | 340° |
| 2026-05-05 08:12 | 47.22672 | -74.17835 | 30086 ft | 469 kts | 334° |
| 2026-05-05 08:12 | 47.25676 | -74.19698 | 30286 ft | 468 kts | 333° |
| 2026-05-05 08:12 | 47.28669 | -74.21591 | 30454 ft | 468 kts | 333° |
| 2026-05-05 08:12 | 47.31666 | -74.23491 | 30518 ft | 470 kts | 333° |
| 2026-05-05 08:13 | 47.37656 | -74.27263 | 30584 ft | 467 kts | 333° |
| 2026-05-05 08:13 | 47.43596 | -74.30977 | 30577 ft | 466 kts | 333° |
| 2026-05-05 08:14 | 47.49565 | -74.34705 | 30581 ft | 465 kts | 333° |
| 2026-05-05 08:14 | 47.55529 | -74.38436 | 30585 ft | 465 kts | 333° |
| 2026-05-05 08:15 | 47.61496 | -74.42179 | 30581 ft | 466 kts | 333° |
| 2026-05-05 08:15 | 47.67420 | -74.45906 | 30574 ft | 466 kts | 333° |
| 2026-05-05 08:16 | 47.73394 | -74.49673 | 30569 ft | 466 kts | 333° |
| 2026-05-05 08:16 | 47.79369 | -74.53450 | 30575 ft | 467 kts | 333° |
| 2026-05-05 08:17 | 47.85355 | -74.57246 | 30541 ft | 468 kts | 333° |
| 2026-05-05 08:17 | 47.91338 | -74.61046 | 30539 ft | 467 kts | 333° |
| 2026-05-05 08:18 | 47.97272 | -74.64828 | 30515 ft | 467 kts | 333° |
| 2026-05-05 08:18 | 48.03249 | -74.68645 | 30530 ft | 467 kts | 332° |
| 2026-05-05 08:19 | 48.09229 | -74.72476 | 30516 ft | 468 kts | 332° |
| 2026-05-05 08:19 | 48.15174 | -74.76291 | 30513 ft | 468 kts | 332° |
| 2026-05-05 08:20 | 48.21164 | -74.80144 | 30504 ft | 469 kts | 332° |
| 2026-05-05 08:20 | 48.27154 | -74.84010 | 30484 ft | 469 kts | 332° |
| 2026-05-05 08:21 | 48.33155 | -74.87889 | 30478 ft | 470 kts | 332° |
| 2026-05-05 08:21 | 48.39156 | -74.91781 | 30476 ft | 469 kts | 332° |
| 2026-05-05 08:22 | 48.45115 | -74.95658 | 30466 ft | 470 kts | 332° |
| 2026-05-05 08:22 | 48.51115 | -74.99568 | 30475 ft | 470 kts | 332° |
| 2026-05-05 08:23 | 48.57113 | -75.03486 | 30464 ft | 470 kts | 332° |
| 2026-05-05 08:23 | 48.63116 | -75.07420 | 30466 ft | 470 kts | 332° |
| 2026-05-05 08:24 | 48.69080 | -75.11338 | 30474 ft | 470 kts | 332° |
| 2026-05-05 08:24 | 48.75085 | -75.15293 | 30472 ft | 471 kts | 332° |
| 2026-05-05 08:25 | 48.81098 | -75.19264 | 30470 ft | 471 kts | 332° |
| 2026-05-05 08:25 | 48.87117 | -75.23251 | 30470 ft | 472 kts | 332° |
| 2026-05-05 08:26 | 48.93136 | -75.27246 | 30460 ft | 473 kts | 332° |
| 2026-05-05 08:26 | 48.99122 | -75.31231 | 30459 ft | 473 kts | 332° |
| 2026-05-05 08:27 | 49.05150 | -75.35253 | 30459 ft | 473 kts | 332° |
| 2026-05-05 08:27 | 49.11179 | -75.39286 | 30458 ft | 473 kts | 331° |
| 2026-05-05 08:28 | 49.17209 | -75.43331 | 30461 ft | 473 kts | 331° |
| 2026-05-05 08:28 | 49.23196 | -75.47358 | 30457 ft | 474 kts | 331° |
| 2026-05-05 08:29 | 49.29232 | -75.51429 | 30457 ft | 474 kts | 331° |
| 2026-05-05 08:30 | 49.38296 | -75.57565 | 30448 ft | 475 kts | 331° |
| 2026-05-05 08:30 | 49.44345 | -75.61672 | 30451 ft | 476 kts | 331° |
| 2026-05-05 08:31 | 49.50353 | -75.65763 | 30452 ft | 476 kts | 331° |
| 2026-05-05 08:31 | 49.56413 | -75.69902 | 30450 ft | 477 kts | 331° |
| 2026-05-05 08:32 | 49.62480 | -75.74055 | 30450 ft | 477 kts | 331° |
| 2026-05-05 08:32 | 49.68550 | -75.78223 | 30449 ft | 478 kts | 331° |
| 2026-05-05 08:33 | 49.74627 | -75.82405 | 30452 ft | 478 kts | 331° |
| 2026-05-05 08:33 | 49.80710 | -75.86605 | 30448 ft | 479 kts | 331° |
| 2026-05-05 08:34 | 49.86750 | -75.90784 | 30434 ft | 479 kts | 330° |
| 2026-05-05 08:34 | 49.92840 | -75.95014 | 30429 ft | 480 kts | 330° |
| 2026-05-05 08:35 | 49.98935 | -75.99238 | 30433 ft | 480 kts | 332° |
| 2026-05-05 08:35 | 50.05282 | -76.02478 | 30437 ft | 485 kts | 339° |
| 2026-05-05 08:36 | 50.11796 | -76.05238 | 30429 ft | 486 kts | 340° |
| 2026-05-05 08:36 | 50.18314 | -76.08021 | 30432 ft | 485 kts | 339° |
| 2026-05-05 08:37 | 50.24819 | -76.10857 | 30431 ft | 485 kts | 339° |
| 2026-05-05 08:37 | 50.31321 | -76.13722 | 30430 ft | 486 kts | 339° |
| 2026-05-05 08:38 | 50.37782 | -76.16583 | 30428 ft | 486 kts | 339° |
| 2026-05-05 08:38 | 50.44292 | -76.19470 | 30423 ft | 486 kts | 339° |
| 2026-05-05 08:39 | 50.50797 | -76.22361 | 30421 ft | 487 kts | 339° |
| 2026-05-05 08:39 | 50.57313 | -76.25265 | 30424 ft | 487 kts | 340° |
| 2026-05-05 08:40 | 50.63789 | -76.28163 | 30421 ft | 487 kts | 340° |
| 2026-05-05 08:40 | 50.70318 | -76.31093 | 30422 ft | 488 kts | 340° |
| 2026-05-05 08:41 | 50.76857 | -76.34035 | 30422 ft | 489 kts | 340° |
| 2026-05-05 08:41 | 50.83408 | -76.36991 | 30421 ft | 490 kts | 340° |
| 2026-05-05 08:42 | 50.89960 | -76.39950 | 30422 ft | 490 kts | 340° |
| 2026-05-05 08:42 | 50.96482 | -76.42910 | 30420 ft | 491 kts | 340° |
| 2026-05-05 08:43 | 51.03055 | -76.45899 | 30424 ft | 492 kts | 341° |
| 2026-05-05 08:43 | 51.09636 | -76.48902 | 30424 ft | 492 kts | 341° |
| 2026-05-05 08:44 | 51.16216 | -76.51914 | 30420 ft | 493 kts | 341° |
| 2026-05-05 08:44 | 51.22763 | -76.54921 | 30422 ft | 493 kts | 341° |
| 2026-05-05 08:45 | 51.29358 | -76.57959 | 30422 ft | 493 kts | 341° |
| 2026-05-05 08:45 | 51.35952 | -76.61003 | 30420 ft | 493 kts | 341° |
| 2026-05-05 08:46 | 51.42547 | -76.64057 | 30422 ft | 493 kts | 341° |
| 2026-05-05 08:46 | 51.49134 | -76.67117 | 30420 ft | 493 kts | 341° |
| 2026-05-05 08:47 | 51.55684 | -76.70171 | 30415 ft | 493 kts | 341° |
| 2026-05-05 08:47 | 51.62280 | -76.73253 | 30413 ft | 494 kts | 341° |
| 2026-05-05 08:48 | 51.68875 | -76.76346 | 30413 ft | 494 kts | 341° |
| 2026-05-05 08:48 | 51.75471 | -76.79447 | 30411 ft | 494 kts | 341° |
| 2026-05-05 08:49 | 51.82017 | -76.82536 | 30413 ft | 494 kts | 341° |
| 2026-05-05 08:49 | 51.88618 | -76.85657 | 30412 ft | 494 kts | 341° |
| 2026-05-05 08:50 | 51.95219 | -76.88790 | 30413 ft | 494 kts | 341° |
| 2026-05-05 08:50 | 52.01821 | -76.91935 | 30412 ft | 494 kts | 341° |
| 2026-05-05 08:51 | 52.08381 | -76.95067 | 30403 ft | 495 kts | 342° |
| 2026-05-05 08:51 | 52.14989 | -76.98231 | 30401 ft | 495 kts | 342° |
| 2026-05-05 08:52 | 52.21594 | -77.01404 | 30404 ft | 495 kts | 342° |
| 2026-05-05 08:52 | 52.28197 | -77.04584 | 30404 ft | 495 kts | 342° |
| 2026-05-05 08:53 | 52.34766 | -77.07761 | 30404 ft | 496 kts | 342° |
| 2026-05-05 08:53 | 52.41386 | -77.10973 | 30392 ft | 496 kts | 342° |
| 2026-05-05 08:54 | 52.48011 | -77.14195 | 30389 ft | 497 kts | 342° |
| 2026-05-05 08:54 | 52.54628 | -77.17424 | 30393 ft | 496 kts | 342° |
| 2026-05-05 08:55 | 52.61250 | -77.20665 | 30389 ft | 496 kts | 342° |
| 2026-05-05 08:55 | 52.67826 | -77.23894 | 30386 ft | 496 kts | 342° |
| 2026-05-05 08:56 | 52.74446 | -77.27156 | 30387 ft | 496 kts | 342° |
| 2026-05-05 08:56 | 52.81064 | -77.30428 | 30378 ft | 496 kts | 342° |
| 2026-05-05 08:57 | 52.87632 | -77.33683 | 30381 ft | 496 kts | 342° |
| 2026-05-05 08:57 | 52.94254 | -77.36975 | 30371 ft | 497 kts | 342° |
| 2026-05-05 08:58 | 53.00878 | -77.40280 | 30365 ft | 497 kts | 342° |
| 2026-05-05 08:58 | 53.07501 | -77.43598 | 30365 ft | 497 kts | 342° |
| 2026-05-05 08:59 | 53.14126 | -77.46924 | 30367 ft | 497 kts | 342° |
| 2026-05-05 08:59 | 53.20697 | -77.50233 | 30367 ft | 497 kts | 342° |
| 2026-05-05 09:00 | 53.27319 | -77.53581 | 30365 ft | 497 kts | 343° |
| 2026-05-05 09:00 | 53.33942 | -77.56939 | 30360 ft | 497 kts | 343° |
| 2026-05-05 09:01 | 53.40524 | -77.60288 | 30356 ft | 498 kts | 343° |
| 2026-05-05 09:01 | 53.47151 | -77.63670 | 30356 ft | 498 kts | 343° |
| 2026-05-05 09:02 | 53.53772 | -77.67061 | 30356 ft | 498 kts | 343° |
| 2026-05-05 09:02 | 53.60403 | -77.70466 | 30355 ft | 498 kts | 343° |
| 2026-05-05 09:03 | 53.66944 | -77.74113 | 30344 ft | 498 kts | 340° |
| 2026-05-05 09:03 | 53.73438 | -77.78191 | 30346 ft | 497 kts | 339° |
| 2026-05-05 09:04 | 53.79905 | -77.82310 | 30347 ft | 496 kts | 340° |
| 2026-05-05 09:04 | 53.86373 | -77.86388 | 30344 ft | 496 kts | 340° |
| 2026-05-05 09:05 | 53.92793 | -77.90415 | 30346 ft | 495 kts | 340° |
| 2026-05-05 09:05 | 53.99250 | -77.94469 | 30354 ft | 494 kts | 340° |
| 2026-05-05 09:06 | 54.05695 | -77.98533 | 30357 ft | 495 kts | 340° |
| 2026-05-05 09:06 | 54.12150 | -78.02620 | 30356 ft | 495 kts | 340° |
| 2026-05-05 09:07 | 54.18611 | -78.06721 | 30366 ft | 495 kts | 340° |
| 2026-05-05 09:07 | 54.25033 | -78.10815 | 30366 ft | 496 kts | 340° |
| 2026-05-05 09:08 | 54.31491 | -78.14944 | 30357 ft | 496 kts | 340° |
| 2026-05-05 09:08 | 54.37959 | -78.19093 | 30367 ft | 496 kts | 340° |
| 2026-05-05 09:09 | 54.44421 | -78.23253 | 30361 ft | 496 kts | 340° |
| 2026-05-05 09:09 | 54.50838 | -78.27398 | 30371 ft | 496 kts | 340° |
| 2026-05-05 09:10 | 54.57287 | -78.31578 | 30382 ft | 495 kts | 340° |
| 2026-05-05 09:10 | 54.63738 | -78.35770 | 30382 ft | 495 kts | 340° |
| 2026-05-05 09:11 | 54.70181 | -78.39973 | 30384 ft | 495 kts | 340° |
| 2026-05-05 09:11 | 54.76575 | -78.44159 | 30398 ft | 494 kts | 340° |
| 2026-05-05 09:12 | 54.83001 | -78.48380 | 30390 ft | 494 kts | 340° |
| 2026-05-05 09:12 | 54.89429 | -78.52618 | 30396 ft | 494 kts | 340° |
| 2026-05-05 09:13 | 54.95855 | -78.56868 | 30398 ft | 494 kts | 340° |
| 2026-05-05 09:13 | 55.02271 | -78.61126 | 30405 ft | 494 kts | 340° |
| 2026-05-05 09:14 | 55.08688 | -78.65401 | 30404 ft | 493 kts | 339° |
| 2026-05-05 09:14 | 55.15062 | -78.69658 | 30404 ft | 494 kts | 339° |
| 2026-05-05 09:15 | 55.21478 | -78.73962 | 30402 ft | 494 kts | 339° |
| 2026-05-05 09:15 | 55.27893 | -78.78277 | 30401 ft | 494 kts | 339° |
| 2026-05-05 09:16 | 55.34261 | -78.82578 | 30408 ft | 493 kts | 339° |
| 2026-05-05 09:16 | 55.40661 | -78.86914 | 30414 ft | 493 kts | 339° |
| 2026-05-05 09:17 | 55.47064 | -78.91266 | 30411 ft | 493 kts | 339° |
| 2026-05-05 09:17 | 55.53468 | -78.95636 | 30415 ft | 493 kts | 339° |
| 2026-05-05 09:18 | 55.59870 | -79.00018 | 30411 ft | 493 kts | 339° |
| 2026-05-05 09:18 | 55.66273 | -79.04419 | 30414 ft | 494 kts | 339° |
| 2026-05-05 09:19 | 55.72632 | -79.08803 | 30413 ft | 494 kts | 339° |
| 2026-05-05 09:19 | 55.79039 | -79.13236 | 30413 ft | 494 kts | 339° |
| 2026-05-05 09:20 | 55.85441 | -79.17682 | 30422 ft | 494 kts | 339° |
| 2026-05-05 09:20 | 55.91853 | -79.22150 | 30422 ft | 495 kts | 339° |
| 2026-05-05 09:21 | 55.98224 | -79.26608 | 30423 ft | 495 kts | 339° |
| 2026-05-05 09:21 | 56.04640 | -79.31109 | 30435 ft | 495 kts | 339° |
| 2026-05-05 09:22 | 56.11054 | -79.35623 | 30429 ft | 495 kts | 339° |
| 2026-05-05 09:22 | 56.17457 | -79.40150 | 30440 ft | 495 kts | 339° |
| 2026-05-05 09:23 | 56.23819 | -79.44664 | 30438 ft | 495 kts | 339° |
| 2026-05-05 09:23 | 56.30220 | -79.49222 | 30448 ft | 495 kts | 339° |
| 2026-05-05 09:24 | 56.36614 | -79.53791 | 30457 ft | 495 kts | 339° |
| 2026-05-05 09:24 | 56.43010 | -79.58378 | 30469 ft | 495 kts | 339° |
| 2026-05-05 09:25 | 56.49364 | -79.62950 | 30467 ft | 495 kts | 339° |
| 2026-05-05 09:25 | 56.55759 | -79.67573 | 30478 ft | 495 kts | 339° |
| 2026-05-05 09:26 | 56.62151 | -79.72205 | 30485 ft | 495 kts | 339° |
| 2026-05-05 09:26 | 56.68533 | -79.76847 | 30490 ft | 495 kts | 339° |
| 2026-05-05 09:27 | 56.74918 | -79.81511 | 30496 ft | 494 kts | 339° |
| 2026-05-05 09:27 | 56.81254 | -79.86156 | 30504 ft | 494 kts | 339° |
| 2026-05-05 09:28 | 56.87626 | -79.90845 | 30513 ft | 493 kts | 338° |
| 2026-05-05 09:28 | 56.93989 | -79.95541 | 30518 ft | 493 kts | 338° |
| 2026-05-05 09:29 | 57.00112 | -80.01116 | 30524 ft | 492 kts | 328° |
| 2026-05-05 09:29 | 57.05528 | -80.08636 | 30537 ft | 492 kts | 319° |
| 2026-05-05 09:30 | 57.10636 | -80.16999 | 30539 ft | 493 kts | 318° |
| 2026-05-05 09:30 | 57.15744 | -80.25418 | 30541 ft | 493 kts | 318° |
| 2026-05-05 09:31 | 57.20872 | -80.33818 | 30543 ft | 493 kts | 318° |
| 2026-05-05 09:31 | 57.26008 | -80.42223 | 30549 ft | 493 kts | 318° |
| 2026-05-05 09:32 | 57.31105 | -80.50589 | 30556 ft | 493 kts | 318° |
| 2026-05-05 09:32 | 57.36222 | -80.59020 | 30553 ft | 493 kts | 318° |
| 2026-05-05 09:33 | 57.41337 | -80.67479 | 30556 ft | 493 kts | 318° |
| 2026-05-05 09:33 | 57.46443 | -80.75961 | 30562 ft | 492 kts | 318° |
| 2026-05-05 09:34 | 57.51509 | -80.84411 | 30562 ft | 492 kts | 317° |
| 2026-05-05 09:34 | 57.56605 | -80.92944 | 30563 ft | 493 kts | 317° |
| 2026-05-05 09:35 | 57.60833 | -81.00048 | 30563 ft | 493 kts | 317° |
| 2026-05-05 09:35 | 57.68459 | -81.12919 | 30572 ft | 493 kts | 317° |
| 2026-05-05 09:36 | 57.74372 | -81.22951 | 30572 ft | 494 kts | 317° |
| 2026-05-05 09:36 | 57.79448 | -81.31603 | 30573 ft | 494 kts | 317° |
| 2026-05-05 09:37 | 57.83705 | -81.38886 | 30563 ft | 494 kts | 317° |
| 2026-05-05 09:37 | 57.88753 | -81.47549 | 30554 ft | 495 kts | 317° |
| 2026-05-05 09:38 | 57.93832 | -81.56303 | 30555 ft | 495 kts | 317° |
| 2026-05-05 09:38 | 57.98903 | -81.65078 | 30555 ft | 495 kts | 317° |
| 2026-05-05 09:39 | 58.03964 | -81.73874 | 30556 ft | 495 kts | 316° |
| 2026-05-05 09:39 | 58.08987 | -81.82635 | 30551 ft | 495 kts | 316° |
| 2026-05-05 09:40 | 58.14031 | -81.91468 | 30556 ft | 494 kts | 316° |
| 2026-05-05 09:40 | 58.19079 | -82.00344 | 30551 ft | 495 kts | 316° |
| 2026-05-05 09:41 | 58.24111 | -82.09230 | 30553 ft | 494 kts | 316° |
| 2026-05-05 09:41 | 58.29108 | -82.18090 | 30555 ft | 495 kts | 316° |
| 2026-05-05 09:42 | 58.34127 | -82.27027 | 30553 ft | 495 kts | 316° |
| 2026-05-05 09:42 | 58.39147 | -82.35997 | 30554 ft | 495 kts | 316° |
| 2026-05-05 09:43 | 58.44159 | -82.44995 | 30553 ft | 495 kts | 316° |
| 2026-05-05 09:43 | 58.49163 | -82.54012 | 30553 ft | 495 kts | 316° |
| 2026-05-05 09:44 | 58.54129 | -82.63000 | 30552 ft | 495 kts | 316° |
| 2026-05-05 09:44 | 58.59118 | -82.72063 | 30588 ft | 493 kts | 315° |
| 2026-05-05 09:45 | 58.64085 | -82.81124 | 30634 ft | 493 kts | 315° |
| 2026-05-05 09:45 | 58.69018 | -82.90161 | 30645 ft | 493 kts | 315° |
| 2026-05-05 09:46 | 58.73976 | -82.99282 | 30648 ft | 494 kts | 315° |
| 2026-05-05 09:46 | 58.78937 | -83.08452 | 30646 ft | 494 kts | 315° |
| 2026-05-05 09:47 | 58.83896 | -83.17646 | 30646 ft | 494 kts | 315° |
| 2026-05-05 09:47 | 58.88849 | -83.26871 | 30648 ft | 495 kts | 315° |
| 2026-05-05 09:48 | 58.93762 | -83.36067 | 30647 ft | 494 kts | 315° |
| 2026-05-05 09:48 | 58.98695 | -83.45330 | 30642 ft | 494 kts | 315° |
| 2026-05-05 09:49 | 59.03625 | -83.54628 | 30637 ft | 494 kts | 315° |
| 2026-05-05 09:49 | 59.08540 | -83.63941 | 30643 ft | 493 kts | 314° |
| 2026-05-05 09:50 | 59.13411 | -83.73204 | 30648 ft | 492 kts | 314° |
| 2026-05-05 09:50 | 59.18303 | -83.82550 | 30648 ft | 492 kts | 314° |
| 2026-05-05 09:51 | 59.23178 | -83.91903 | 30656 ft | 492 kts | 314° |
| 2026-05-05 09:51 | 59.28049 | -84.01291 | 30656 ft | 492 kts | 314° |
| 2026-05-05 09:52 | 59.32915 | -84.10706 | 30662 ft | 492 kts | 314° |
| 2026-05-05 09:52 | 59.37742 | -84.20083 | 30667 ft | 492 kts | 314° |
| 2026-05-05 09:53 | 59.42593 | -84.29554 | 30669 ft | 492 kts | 314° |
| 2026-05-05 09:53 | 59.47432 | -84.39037 | 30677 ft | 492 kts | 314° |
| 2026-05-05 09:54 | 59.52269 | -84.48556 | 30678 ft | 492 kts | 313° |
| 2026-05-05 09:54 | 59.57069 | -84.58040 | 30684 ft | 492 kts | 313° |
| 2026-05-05 09:55 | 59.61893 | -84.67618 | 30685 ft | 492 kts | 313° |
| 2026-05-05 09:55 | 59.66709 | -84.77220 | 30717 ft | 491 kts | 313° |
| 2026-05-05 09:56 | 59.71515 | -84.86843 | 30727 ft | 491 kts | 313° |
| 2026-05-05 09:56 | 59.76276 | -84.96417 | 30731 ft | 491 kts | 313° |
| 2026-05-05 09:57 | 59.81073 | -85.06105 | 30733 ft | 492 kts | 313° |
| 2026-05-05 09:57 | 59.85863 | -85.15822 | 30739 ft | 492 kts | 313° |
| 2026-05-05 09:58 | 59.90647 | -85.25570 | 30736 ft | 492 kts | 313° |
| 2026-05-05 09:58 | 59.95423 | -85.35346 | 30750 ft | 492 kts | 313° |
| 2026-05-05 09:59 | 60.00152 | -85.45068 | 30752 ft | 492 kts | 313° |
| 2026-05-05 09:59 | 60.04910 | -85.54890 | 30721 ft | 492 kts | 312° |
| 2026-05-05 10:00 | 60.09662 | -85.64744 | 30706 ft | 491 kts | 312° |
| 2026-05-05 10:00 | 60.14391 | -85.74597 | 30700 ft | 490 kts | 312° |
| 2026-05-05 10:01 | 60.19085 | -85.84416 | 30710 ft | 489 kts | 312° |
| 2026-05-05 10:01 | 60.23787 | -85.94293 | 30713 ft | 489 kts | 312° |
| 2026-05-05 10:02 | 60.28483 | -86.04201 | 30720 ft | 489 kts | 312° |
| 2026-05-05 10:02 | 60.33171 | -86.14148 | 30728 ft | 489 kts | 312° |
| 2026-05-05 10:03 | 60.37856 | -86.24127 | 30733 ft | 490 kts | 312° |
| 2026-05-05 10:03 | 60.42506 | -86.34073 | 30745 ft | 490 kts | 311° |
| 2026-05-05 10:04 | 60.47179 | -86.44111 | 30748 ft | 490 kts | 311° |
| 2026-05-05 10:04 | 60.51852 | -86.54196 | 30750 ft | 491 kts | 311° |
| 2026-05-05 10:05 | 60.56521 | -86.64317 | 30752 ft | 491 kts | 311° |
| 2026-05-05 10:05 | 60.61152 | -86.74403 | 30760 ft | 491 kts | 311° |
| 2026-05-05 10:06 | 60.65807 | -86.84588 | 30766 ft | 491 kts | 311° |
| 2026-05-05 10:06 | 60.70451 | -86.94794 | 30771 ft | 491 kts | 311° |
| 2026-05-05 10:07 | 60.75090 | -87.05039 | 30778 ft | 491 kts | 311° |
| 2026-05-05 10:07 | 60.79720 | -87.15309 | 30782 ft | 491 kts | 311° |
| 2026-05-05 10:08 | 60.84311 | -87.25539 | 30788 ft | 491 kts | 311° |
| 2026-05-05 10:08 | 60.88926 | -87.35869 | 30802 ft | 491 kts | 311° |
| 2026-05-05 10:09 | 60.93533 | -87.46228 | 30796 ft | 491 kts | 311° |
| 2026-05-05 10:09 | 60.98126 | -87.56601 | 30805 ft | 491 kts | 311° |
| 2026-05-05 10:10 | 61.02685 | -87.66947 | 30805 ft | 491 kts | 311° |
| 2026-05-05 10:10 | 61.07265 | -87.77392 | 30830 ft | 490 kts | 311° |
| 2026-05-05 10:11 | 61.11830 | -87.87853 | 30876 ft | 490 kts | 311° |
| 2026-05-05 10:11 | 61.16394 | -87.98360 | 30876 ft | 491 kts | 311° |
| 2026-05-05 10:12 | 61.20956 | -88.08904 | 30883 ft | 492 kts | 311° |
| 2026-05-05 10:12 | 61.25490 | -88.19433 | 30895 ft | 492 kts | 311° |
| 2026-05-05 10:13 | 61.30046 | -88.30072 | 30907 ft | 492 kts | 311° |
| 2026-05-05 10:13 | 61.34595 | -88.40743 | 30907 ft | 493 kts | 311° |
| 2026-05-05 10:14 | 61.39136 | -88.51442 | 30907 ft | 492 kts | 311° |
| 2026-05-05 10:14 | 61.43633 | -88.62089 | 30907 ft | 492 kts | 311° |
| 2026-05-05 10:15 | 61.48155 | -88.72845 | 30908 ft | 492 kts | 311° |
| 2026-05-05 10:15 | 61.52664 | -88.83621 | 30917 ft | 491 kts | 311° |
| 2026-05-05 10:16 | 61.57159 | -88.94416 | 30917 ft | 491 kts | 311° |
| 2026-05-05 10:16 | 61.61610 | -89.05162 | 30918 ft | 491 kts | 311° |
| 2026-05-05 10:17 | 61.66074 | -89.15988 | 30924 ft | 490 kts | 311° |
| 2026-05-05 10:17 | 61.70531 | -89.26842 | 30932 ft | 489 kts | 311° |
| 2026-05-05 10:18 | 61.74973 | -89.37724 | 30937 ft | 489 kts | 311° |
| 2026-05-05 10:18 | 61.79379 | -89.48563 | 30937 ft | 489 kts | 311° |
| 2026-05-05 10:19 | 61.83806 | -89.59503 | 30938 ft | 489 kts | 311° |
| 2026-05-05 10:19 | 61.88219 | -89.70465 | 30938 ft | 489 kts | 311° |
| 2026-05-05 10:20 | 61.92628 | -89.81472 | 30940 ft | 489 kts | 311° |
| 2026-05-05 10:20 | 61.97030 | -89.92511 | 30941 ft | 490 kts | 311° |
| 2026-05-05 10:21 | 62.01406 | -90.03489 | 30943 ft | 490 kts | 312° |
| 2026-05-05 10:21 | 62.05999 | -90.14199 | 30948 ft | 489 kts | 314° |
| 2026-05-05 10:22 | 62.10651 | -90.24785 | 30940 ft | 489 kts | 314° |
| 2026-05-05 10:22 | 62.15277 | -90.35456 | 30939 ft | 489 kts | 313° |
| 2026-05-05 10:23 | 62.19868 | -90.46200 | 30954 ft | 489 kts | 313° |
| 2026-05-05 10:23 | 62.24409 | -90.56910 | 30954 ft | 488 kts | 313° |
| 2026-05-05 10:24 | 62.28968 | -90.67714 | 30953 ft | 488 kts | 313° |
| 2026-05-05 10:24 | 62.33510 | -90.78528 | 30954 ft | 487 kts | 313° |
| 2026-05-05 10:25 | 62.38045 | -90.89376 | 30953 ft | 486 kts | 313° |
| 2026-05-05 10:25 | 62.42531 | -91.00159 | 30954 ft | 486 kts | 313° |
| 2026-05-05 10:26 | 62.47030 | -91.11015 | 30953 ft | 485 kts | 313° |
| 2026-05-05 10:26 | 62.51514 | -91.21901 | 30956 ft | 484 kts | 313° |
| 2026-05-05 10:27 | 62.55982 | -91.32802 | 30964 ft | 483 kts | 313° |
| 2026-05-05 10:27 | 62.60408 | -91.43649 | 30963 ft | 483 kts | 313° |
| 2026-05-05 10:28 | 62.64853 | -91.54592 | 30962 ft | 483 kts | 313° |
| 2026-05-05 10:28 | 62.69281 | -91.65550 | 30963 ft | 482 kts | 313° |
| 2026-05-05 10:29 | 62.73704 | -91.76550 | 30963 ft | 482 kts | 313° |
| 2026-05-05 10:29 | 62.78120 | -91.87591 | 30964 ft | 482 kts | 313° |
| 2026-05-05 10:30 | 62.82492 | -91.98570 | 30962 ft | 482 kts | 313° |
| 2026-05-05 10:30 | 62.86885 | -92.09663 | 30967 ft | 482 kts | 313° |
| 2026-05-05 10:31 | 62.91263 | -92.20767 | 30960 ft | 481 kts | 313° |
| 2026-05-05 10:31 | 62.95622 | -92.31876 | 30962 ft | 479 kts | 312° |
| 2026-05-05 10:32 | 62.99934 | -92.42924 | 30963 ft | 479 kts | 312° |
| 2026-05-05 10:32 | 63.04253 | -92.54047 | 30963 ft | 478 kts | 312° |
| 2026-05-05 10:33 | 63.08563 | -92.65203 | 30963 ft | 477 kts | 312° |
| 2026-05-05 10:33 | 63.12834 | -92.76308 | 30969 ft | 477 kts | 312° |
| 2026-05-05 10:34 | 63.17119 | -92.87513 | 30973 ft | 477 kts | 312° |
| 2026-05-05 10:34 | 63.21393 | -92.98741 | 30972 ft | 477 kts | 312° |
| 2026-05-05 10:35 | 63.25661 | -93.10007 | 30980 ft | 477 kts | 312° |
| 2026-05-05 10:35 | 63.29890 | -93.21227 | 30983 ft | 477 kts | 311° |
| 2026-05-05 10:36 | 63.34138 | -93.32555 | 30987 ft | 477 kts | 311° |
| 2026-05-05 10:36 | 63.38371 | -93.43904 | 30992 ft | 476 kts | 311° |
| 2026-05-05 10:37 | 63.42600 | -93.55293 | 30998 ft | 476 kts | 311° |
| 2026-05-05 10:37 | 63.46790 | -93.66640 | 31011 ft | 476 kts | 311° |
| 2026-05-05 10:38 | 63.50996 | -93.78092 | 31022 ft | 476 kts | 311° |
| 2026-05-05 10:38 | 63.55190 | -93.89561 | 31031 ft | 476 kts | 311° |
| 2026-05-05 10:39 | 63.59377 | -94.01077 | 31041 ft | 476 kts | 311° |
| 2026-05-05 10:39 | 63.63528 | -94.12552 | 31051 ft | 476 kts | 310° |
| 2026-05-05 10:40 | 63.67689 | -94.24115 | 31072 ft | 476 kts | 310° |
| 2026-05-05 10:40 | 63.71847 | -94.35721 | 31076 ft | 476 kts | 310° |
| 2026-05-05 10:41 | 63.75993 | -94.47361 | 31084 ft | 475 kts | 310° |
| 2026-05-05 10:41 | 63.80130 | -94.59032 | 31092 ft | 475 kts | 310° |
| 2026-05-05 10:42 | 63.86289 | -94.76525 | 31105 ft | 475 kts | 310° |
| 2026-05-05 10:43 | 63.90396 | -94.88267 | 31119 ft | 475 kts | 310° |
| 2026-05-05 10:43 | 63.94496 | -95.00051 | 31129 ft | 475 kts | 310° |
| 2026-05-05 10:44 | 63.98561 | -95.11791 | 31130 ft | 475 kts | 309° |
| 2026-05-05 10:44 | 64.02642 | -95.23642 | 31130 ft | 475 kts | 309° |
| 2026-05-05 10:45 | 64.06715 | -95.35539 | 31139 ft | 476 kts | 309° |
| 2026-05-05 10:45 | 64.10783 | -95.47476 | 31139 ft | 476 kts | 309° |
| 2026-05-05 10:46 | 64.14838 | -95.59441 | 31138 ft | 476 kts | 308° |
| 2026-05-05 10:46 | 64.18888 | -95.71457 | 31134 ft | 476 kts | 308° |
| 2026-05-05 10:47 | 64.22900 | -95.83423 | 31136 ft | 476 kts | 308° |
| 2026-05-05 10:47 | 64.26927 | -95.95498 | 31138 ft | 476 kts | 308° |
| 2026-05-05 10:48 | 64.30942 | -96.07606 | 31136 ft | 475 kts | 308° |
| 2026-05-05 10:48 | 64.34920 | -96.19663 | 31139 ft | 475 kts | 308° |
| 2026-05-05 10:49 | 64.38914 | -96.31834 | 31140 ft | 475 kts | 308° |
| 2026-05-05 10:49 | 64.42896 | -96.44033 | 31138 ft | 475 kts | 308° |
| 2026-05-05 10:50 | 64.46871 | -96.56282 | 31141 ft | 476 kts | 307° |
| 2026-05-05 10:50 | 64.50838 | -96.68573 | 31137 ft | 476 kts | 307° |
| 2026-05-05 10:51 | 64.54765 | -96.80809 | 31138 ft | 476 kts | 307° |
| 2026-05-05 10:51 | 64.58716 | -96.93182 | 31137 ft | 476 kts | 307° |
| 2026-05-05 10:52 | 64.62659 | -97.05596 | 31142 ft | 477 kts | 307° |
| 2026-05-05 10:52 | 64.66591 | -97.18055 | 31147 ft | 477 kts | 307° |
| 2026-05-05 10:53 | 64.70486 | -97.30458 | 31150 ft | 477 kts | 306° |
| 2026-05-05 10:53 | 64.74403 | -97.42993 | 31143 ft | 477 kts | 306° |
| 2026-05-05 10:54 | 64.78306 | -97.55560 | 31147 ft | 477 kts | 306° |
| 2026-05-05 10:54 | 64.82193 | -97.68160 | 31146 ft | 476 kts | 306° |
| 2026-05-05 10:55 | 64.86045 | -97.80703 | 31151 ft | 476 kts | 306° |
| 2026-05-05 10:55 | 64.89907 | -97.93350 | 31154 ft | 476 kts | 306° |
| 2026-05-05 10:56 | 64.93762 | -98.06048 | 31160 ft | 476 kts | 306° |
| 2026-05-05 10:56 | 64.97607 | -98.18782 | 31151 ft | 476 kts | 306° |
| 2026-05-05 10:57 | 65.01434 | -98.31533 | 31166 ft | 476 kts | 306° |
| 2026-05-05 10:57 | 65.05228 | -98.44245 | 31164 ft | 476 kts | 305° |
| 2026-05-05 10:58 | 65.09035 | -98.57073 | 31166 ft | 476 kts | 305° |
| 2026-05-05 10:58 | 65.12829 | -98.69930 | 31174 ft | 475 kts | 305° |
| 2026-05-05 10:59 | 65.16608 | -98.82813 | 31176 ft | 475 kts | 305° |
| 2026-05-05 10:59 | 65.20350 | -98.95645 | 31181 ft | 475 kts | 305° |
| 2026-05-05 11:00 | 65.24100 | -99.08577 | 31188 ft | 475 kts | 305° |
| 2026-05-05 11:00 | 65.27846 | -99.21567 | 31187 ft | 474 kts | 305° |
| 2026-05-05 11:01 | 65.31577 | -99.34581 | 31193 ft | 474 kts | 305° |
| 2026-05-05 11:01 | 65.35290 | -99.47611 | 31193 ft | 474 kts | 305° |
| 2026-05-05 11:02 | 65.38967 | -99.60592 | 31199 ft | 473 kts | 305° |
| 2026-05-05 11:02 | 65.42656 | -99.73690 | 31206 ft | 473 kts | 304° |
| 2026-05-05 11:03 | 65.46333 | -99.86819 | 31210 ft | 473 kts | 304° |
| 2026-05-05 11:03 | 65.49993 | -99.99963 | 31222 ft | 473 kts | 304° |
| 2026-05-05 11:04 | 65.53461 | -100.13325 | 31223 ft | 473 kts | 302° |
| 2026-05-05 11:04 | 65.56800 | -100.27014 | 31226 ft | 473 kts | 301° |
| 2026-05-05 11:05 | 65.60132 | -100.40716 | 31231 ft | 473 kts | 301° |
| 2026-05-05 11:05 | 65.63474 | -100.54401 | 31232 ft | 472 kts | 302° |
| 2026-05-05 11:06 | 65.66794 | -100.68008 | 31241 ft | 472 kts | 301° |
| 2026-05-05 11:06 | 65.70124 | -100.81734 | 31240 ft | 472 kts | 301° |
| 2026-05-05 11:07 | 65.73459 | -100.95581 | 31549 ft | 476 kts | 301° |
| 2026-05-05 11:07 | 65.75123 | -101.02522 | 31896 ft | 475 kts | 301° |
| 2026-05-05 11:07 | 65.76784 | -101.09473 | 32253 ft | 474 kts | 301° |
| 2026-05-05 11:07 | 65.78438 | -101.16421 | 32574 ft | 474 kts | 301° |
| 2026-05-05 11:08 | 65.80068 | -101.23289 | 32836 ft | 475 kts | 301° |
| 2026-05-05 11:08 | 65.81721 | -101.30267 | 33097 ft | 475 kts | 301° |
| 2026-05-05 11:08 | 65.83377 | -101.37282 | 33189 ft | 479 kts | 301° |
| 2026-05-05 11:09 | 65.86699 | -101.51429 | 33247 ft | 479 kts | 301° |
| 2026-05-05 11:09 | 65.89977 | -101.65494 | 33262 ft | 474 kts | 300° |
| 2026-05-05 11:10 | 65.93204 | -101.79418 | 33274 ft | 473 kts | 300° |
| 2026-05-05 11:10 | 65.96443 | -101.93480 | 33270 ft | 474 kts | 300° |
| 2026-05-05 11:11 | 65.99667 | -102.07578 | 33276 ft | 473 kts | 300° |
| 2026-05-05 11:11 | 66.02881 | -102.21721 | 33278 ft | 474 kts | 300° |
| 2026-05-05 11:12 | 66.06091 | -102.35924 | 33279 ft | 475 kts | 300° |
| 2026-05-05 11:12 | 66.09263 | -102.50072 | 33288 ft | 476 kts | 300° |
| 2026-05-05 11:13 | 66.12450 | -102.64386 | 33288 ft | 476 kts | 300° |
| 2026-05-05 11:13 | 66.15629 | -102.78741 | 33285 ft | 476 kts | 299° |
| 2026-05-05 11:14 | 66.18793 | -102.93128 | 33292 ft | 476 kts | 299° |
| 2026-05-05 11:14 | 66.21919 | -103.07433 | 33295 ft | 475 kts | 299° |
| 2026-05-05 11:15 | 66.25042 | -103.21841 | 33292 ft | 474 kts | 299° |
| 2026-05-05 11:15 | 66.28152 | -103.36275 | 33298 ft | 474 kts | 299° |
| 2026-05-05 11:16 | 66.31244 | -103.50722 | 33307 ft | 473 kts | 299° |
| 2026-05-05 11:16 | 66.34319 | -103.65191 | 33304 ft | 473 kts | 298° |
| 2026-05-05 11:17 | 66.37360 | -103.79591 | 33305 ft | 473 kts | 298° |
| 2026-05-05 11:17 | 66.40403 | -103.94103 | 33307 ft | 473 kts | 298° |
| 2026-05-05 11:18 | 66.43436 | -104.08668 | 33316 ft | 473 kts | 298° |
| 2026-05-05 11:18 | 66.46456 | -104.23279 | 33314 ft | 473 kts | 298° |
| 2026-05-05 11:19 | 66.49446 | -104.37834 | 33314 ft | 473 kts | 298° |
| 2026-05-05 11:19 | 66.52444 | -104.52530 | 33319 ft | 473 kts | 298° |
| 2026-05-05 11:20 | 66.55425 | -104.67247 | 33323 ft | 474 kts | 297° |
| 2026-05-05 11:20 | 66.58395 | -104.82019 | 33322 ft | 473 kts | 297° |
| 2026-05-05 11:21 | 66.61352 | -104.96823 | 33322 ft | 474 kts | 297° |
| 2026-05-05 11:21 | 66.64274 | -105.11562 | 33322 ft | 473 kts | 297° |
| 2026-05-05 11:22 | 66.67199 | -105.26428 | 33315 ft | 473 kts | 297° |
| 2026-05-05 11:22 | 66.70111 | -105.41322 | 33303 ft | 473 kts | 297° |
| 2026-05-05 11:23 | 66.73004 | -105.56229 | 33304 ft | 473 kts | 297° |
| 2026-05-05 11:23 | 66.75865 | -105.71080 | 33305 ft | 472 kts | 296° |
| 2026-05-05 11:24 | 66.78729 | -105.86056 | 33322 ft | 472 kts | 296° |
| 2026-05-05 11:24 | 66.81578 | -106.01061 | 33322 ft | 472 kts | 296° |
| 2026-05-05 11:25 | 66.84415 | -106.16109 | 33322 ft | 472 kts | 296° |
| 2026-05-05 11:25 | 66.87216 | -106.31075 | 33324 ft | 472 kts | 296° |
| 2026-05-05 11:26 | 66.90024 | -106.46199 | 33320 ft | 472 kts | 296° |
| 2026-05-05 11:26 | 66.92818 | -106.61358 | 33314 ft | 473 kts | 295° |
| 2026-05-05 11:27 | 66.95598 | -106.76548 | 33315 ft | 472 kts | 295° |
| 2026-05-05 11:27 | 66.98363 | -106.91772 | 33312 ft | 472 kts | 295° |
| 2026-05-05 11:28 | 67.01092 | -107.06909 | 33315 ft | 472 kts | 295° |
| 2026-05-05 11:28 | 67.03827 | -107.22196 | 33313 ft | 472 kts | 295° |
| 2026-05-05 11:29 | 67.06547 | -107.37519 | 33314 ft | 472 kts | 295° |
| 2026-05-05 11:29 | 67.09251 | -107.52870 | 33313 ft | 472 kts | 295° |
| 2026-05-05 11:30 | 67.11921 | -107.68140 | 33313 ft | 472 kts | 294° |
| 2026-05-05 11:30 | 67.14590 | -107.83527 | 33316 ft | 472 kts | 294° |
| 2026-05-05 11:31 | 67.17247 | -107.98963 | 33307 ft | 472 kts | 294° |
| 2026-05-05 11:31 | 67.19890 | -108.14437 | 33302 ft | 472 kts | 294° |
| 2026-05-05 11:32 | 67.22502 | -108.29848 | 33305 ft | 472 kts | 294° |
| 2026-05-05 11:32 | 67.25117 | -108.45403 | 33303 ft | 472 kts | 294° |
| 2026-05-05 11:33 | 67.27716 | -108.60981 | 33306 ft | 472 kts | 294° |
| 2026-05-05 11:33 | 67.30303 | -108.76614 | 33302 ft | 472 kts | 293° |
| 2026-05-05 11:34 | 67.32874 | -108.92284 | 33293 ft | 472 kts | 293° |
| 2026-05-05 11:34 | 67.35412 | -109.07872 | 33293 ft | 472 kts | 293° |
| 2026-05-05 11:35 | 67.37951 | -109.23584 | 33297 ft | 472 kts | 293° |
| 2026-05-05 11:35 | 67.40471 | -109.39315 | 33293 ft | 472 kts | 292° |
| 2026-05-05 11:36 | 67.42980 | -109.55102 | 33285 ft | 472 kts | 292° |
| 2026-05-05 11:36 | 67.45472 | -109.70924 | 33288 ft | 472 kts | 292° |
| 2026-05-05 11:37 | 67.47934 | -109.86673 | 33285 ft | 472 kts | 292° |
| 2026-05-05 11:37 | 67.50395 | -110.02567 | 33282 ft | 472 kts | 291° |
| 2026-05-05 11:38 | 67.52632 | -110.18710 | 33276 ft | 473 kts | 289° |
| 2026-05-05 11:38 | 67.54747 | -110.34964 | 33274 ft | 473 kts | 289° |
| 2026-05-05 11:39 | 67.56867 | -110.51250 | 33269 ft | 473 kts | 289° |
| 2026-05-05 11:39 | 67.58983 | -110.67431 | 33265 ft | 473 kts | 289° |
| 2026-05-05 11:40 | 67.61104 | -110.83739 | 33263 ft | 472 kts | 289° |
| 2026-05-05 11:40 | 67.63213 | -111.00075 | 33253 ft | 473 kts | 289° |
| 2026-05-05 11:41 | 67.65300 | -111.16430 | 33263 ft | 473 kts | 289° |
| 2026-05-05 11:41 | 67.67360 | -111.32718 | 33254 ft | 473 kts | 289° |
| 2026-05-05 11:42 | 67.69416 | -111.49143 | 33249 ft | 473 kts | 288° |
| 2026-05-05 11:42 | 67.71453 | -111.65594 | 33244 ft | 472 kts | 288° |
| 2026-05-05 11:43 | 67.73473 | -111.82059 | 33248 ft | 472 kts | 288° |
| 2026-05-05 11:43 | 67.75468 | -111.98452 | 33240 ft | 473 kts | 288° |
| 2026-05-05 11:44 | 67.77457 | -112.14972 | 33239 ft | 472 kts | 288° |
| 2026-05-05 11:44 | 67.79429 | -112.31529 | 33239 ft | 472 kts | 288° |
| 2026-05-05 11:45 | 67.81380 | -112.48115 | 33235 ft | 472 kts | 288° |
| 2026-05-05 11:45 | 67.83306 | -112.64614 | 33231 ft | 472 kts | 288° |
| 2026-05-05 11:46 | 67.85223 | -112.81224 | 33230 ft | 472 kts | 288° |
| 2026-05-05 11:46 | 67.87125 | -112.97877 | 33221 ft | 472 kts | 287° |
| 2026-05-05 11:47 | 67.89009 | -113.14539 | 33221 ft | 471 kts | 287° |
| 2026-05-05 11:47 | 67.90874 | -113.31205 | 33220 ft | 470 kts | 287° |
| 2026-05-05 11:48 | 67.93624 | -113.56110 | 33222 ft | 470 kts | 287° |
| 2026-05-05 11:48 | 67.95440 | -113.72788 | 33216 ft | 470 kts | 287° |
| 2026-05-05 11:49 | 67.97241 | -113.89506 | 33213 ft | 470 kts | 287° |
| 2026-05-05 11:49 | 67.99026 | -114.06245 | 33212 ft | 469 kts | 287° |
| 2026-05-05 11:50 | 68.00792 | -114.23010 | 33213 ft | 470 kts | 287° |
| 2026-05-05 11:50 | 68.02528 | -114.39671 | 33210 ft | 470 kts | 286° |
| 2026-05-05 11:51 | 68.04262 | -114.56498 | 33213 ft | 470 kts | 286° |
| 2026-05-05 11:51 | 68.05978 | -114.73348 | 33212 ft | 470 kts | 286° |
| 2026-05-05 11:52 | 68.07677 | -114.90229 | 33213 ft | 470 kts | 286° |
| 2026-05-05 11:52 | 68.09357 | -115.07119 | 33212 ft | 470 kts | 286° |
| 2026-05-05 11:53 | 68.11011 | -115.23929 | 33212 ft | 469 kts | 285° |
| 2026-05-05 11:53 | 68.12658 | -115.40863 | 33214 ft | 469 kts | 285° |
| 2026-05-05 11:54 | 68.14286 | -115.57817 | 33211 ft | 469 kts | 285° |
| 2026-05-05 11:54 | 68.15884 | -115.74668 | 33214 ft | 469 kts | 285° |
| 2026-05-05 11:55 | 68.17472 | -115.91625 | 33216 ft | 468 kts | 285° |
| 2026-05-05 11:55 | 68.19046 | -116.08607 | 33210 ft | 468 kts | 285° |
| 2026-05-05 11:56 | 68.20600 | -116.25598 | 33211 ft | 468 kts | 285° |
| 2026-05-05 11:56 | 68.22137 | -116.42607 | 33213 ft | 467 kts | 285° |
| 2026-05-05 11:57 | 68.23643 | -116.59506 | 33212 ft | 468 kts | 284° |
| 2026-05-05 11:57 | 68.25143 | -116.76561 | 33213 ft | 468 kts | 284° |
| 2026-05-05 11:58 | 68.26627 | -116.93635 | 33213 ft | 467 kts | 284° |
| 2026-05-05 11:58 | 68.28092 | -117.10725 | 33212 ft | 467 kts | 284° |
| 2026-05-05 11:59 | 68.29529 | -117.27705 | 33212 ft | 466 kts | 284° |
| 2026-05-05 11:59 | 68.30955 | -117.44790 | 33212 ft | 465 kts | 284° |
| 2026-05-05 12:00 | 68.32360 | -117.61844 | 33211 ft | 465 kts | 284° |
| 2026-05-05 12:00 | 68.33746 | -117.78910 | 33213 ft | 464 kts | 284° |
| 2026-05-05 12:01 | 68.35103 | -117.95856 | 33212 ft | 463 kts | 284° |
| 2026-05-05 12:01 | 68.36451 | -118.12911 | 33211 ft | 463 kts | 283° |
| 2026-05-05 12:02 | 68.37779 | -118.29966 | 33211 ft | 462 kts | 283° |
| 2026-05-05 12:02 | 68.39085 | -118.46983 | 33225 ft | 460 kts | 284° |
| 2026-05-05 12:03 | 68.40367 | -118.63931 | 33208 ft | 457 kts | 284° |
| 2026-05-05 12:03 | 68.41616 | -118.80663 | 33206 ft | 454 kts | 284° |
| 2026-05-05 12:04 | 68.42849 | -118.97429 | 33208 ft | 452 kts | 283° |
| 2026-05-05 12:04 | 68.44062 | -119.14157 | 33201 ft | 450 kts | 283° |
| 2026-05-05 12:05 | 68.45256 | -119.30883 | 33208 ft | 451 kts | 283° |
| 2026-05-05 12:05 | 68.46426 | -119.47527 | 33192 ft | 451 kts | 283° |
| 2026-05-05 12:06 | 68.47587 | -119.64310 | 33171 ft | 451 kts | 283° |
| 2026-05-05 12:06 | 68.48735 | -119.81127 | 33160 ft | 452 kts | 283° |
| 2026-05-05 12:07 | 68.49865 | -119.97946 | 33159 ft | 451 kts | 283° |
| 2026-05-05 12:07 | 68.51086 | -120.14545 | 33149 ft | 449 kts | 284° |
| 2026-05-05 12:08 | 68.52450 | -120.31178 | 33148 ft | 449 kts | 285° |
| 2026-05-05 12:08 | 68.53795 | -120.47822 | 33144 ft | 449 kts | 284° |
| 2026-05-05 12:09 | 68.55101 | -120.64497 | 33139 ft | 449 kts | 284° |
| 2026-05-05 12:09 | 68.56372 | -120.81091 | 33140 ft | 449 kts | 284° |
| 2026-05-05 12:10 | 68.57632 | -120.97813 | 33134 ft | 450 kts | 283° |
| 2026-05-05 12:10 | 68.58879 | -121.14587 | 33127 ft | 450 kts | 283° |
| 2026-05-05 12:11 | 68.60108 | -121.31386 | 33120 ft | 450 kts | 283° |
| 2026-05-05 12:11 | 68.61316 | -121.48100 | 33120 ft | 450 kts | 283° |
| 2026-05-05 12:12 | 68.62514 | -121.64947 | 33117 ft | 450 kts | 283° |
| 2026-05-05 12:12 | 68.63694 | -121.81796 | 33109 ft | 450 kts | 283° |
| 2026-05-05 12:13 | 68.64663 | -121.95826 | 33111 ft | 450 kts | 282° |
| 2026-05-05 12:13 | 68.65813 | -122.12706 | 33102 ft | 450 kts | 282° |
| 2026-05-05 12:14 | 68.67128 | -122.32348 | 33057 ft | 450 kts | 282° |
| 2026-05-05 12:14 | 68.68051 | -122.46383 | 33054 ft | 449 kts | 282° |
| 2026-05-05 12:15 | 68.69147 | -122.63269 | 33058 ft | 448 kts | 282° |
| 2026-05-05 12:15 | 68.70226 | -122.80144 | 33067 ft | 448 kts | 281° |
| 2026-05-05 12:16 | 68.71458 | -122.99780 | 33056 ft | 449 kts | 281° |
| 2026-05-05 12:16 | 68.72332 | -123.13975 | 33058 ft | 449 kts | 281° |
| 2026-05-05 12:17 | 68.73354 | -123.30818 | 33044 ft | 450 kts | 281° |
| 2026-05-05 12:17 | 68.74531 | -123.50613 | 33032 ft | 450 kts | 281° |
| 2026-05-05 12:18 | 68.75365 | -123.64886 | 33031 ft | 450 kts | 280° |
| 2026-05-05 12:18 | 68.76340 | -123.81844 | 33027 ft | 451 kts | 280° |
| 2026-05-05 12:19 | 68.77306 | -123.98937 | 33024 ft | 451 kts | 280° |
| 2026-05-05 12:19 | 68.78254 | -124.16024 | 33026 ft | 451 kts | 279° |
| 2026-05-05 12:20 | 68.79184 | -124.33147 | 33028 ft | 450 kts | 279° |
| 2026-05-05 12:20 | 68.80094 | -124.50270 | 33027 ft | 450 kts | 279° |
| 2026-05-05 12:21 | 68.80983 | -124.67261 | 33026 ft | 450 kts | 279° |
| 2026-05-05 12:21 | 68.81861 | -124.84392 | 33031 ft | 450 kts | 279° |
| 2026-05-05 12:22 | 68.82722 | -125.01538 | 33018 ft | 450 kts | 279° |
| 2026-05-05 12:22 | 68.83565 | -125.18684 | 33017 ft | 449 kts | 278° |
| 2026-05-05 12:23 | 68.84382 | -125.35718 | 33019 ft | 449 kts | 278° |
| 2026-05-05 12:23 | 68.85187 | -125.52854 | 33017 ft | 449 kts | 278° |
| 2026-05-05 12:24 | 68.85977 | -125.70018 | 33019 ft | 449 kts | 278° |
| 2026-05-05 12:24 | 68.86750 | -125.87193 | 33019 ft | 449 kts | 278° |
| 2026-05-05 12:25 | 68.87499 | -126.04254 | 33020 ft | 449 kts | 278° |
| 2026-05-05 12:25 | 68.88236 | -126.21454 | 33018 ft | 449 kts | 277° |
| 2026-05-05 12:26 | 68.88956 | -126.38670 | 33007 ft | 449 kts | 277° |
| 2026-05-05 12:26 | 68.89660 | -126.55910 | 33000 ft | 450 kts | 277° |
| 2026-05-05 12:27 | 68.90348 | -126.73162 | 33001 ft | 450 kts | 277° |
| 2026-05-05 12:27 | 68.91010 | -126.90303 | 32996 ft | 450 kts | 277° |
| 2026-05-05 12:28 | 68.91662 | -127.07606 | 32987 ft | 451 kts | 276° |
| 2026-05-05 12:28 | 68.92297 | -127.24928 | 32990 ft | 451 kts | 276° |
| 2026-05-05 12:29 | 68.92916 | -127.42277 | 32974 ft | 451 kts | 276° |
| 2026-05-05 12:29 | 68.93511 | -127.59521 | 32989 ft | 451 kts | 276° |
| 2026-05-05 12:30 | 68.94094 | -127.76879 | 32975 ft | 451 kts | 276° |
| 2026-05-05 12:30 | 68.94661 | -127.94273 | 32984 ft | 452 kts | 276° |
| 2026-05-05 12:31 | 68.95211 | -128.11676 | 32981 ft | 452 kts | 275° |
| 2026-05-05 12:31 | 68.95737 | -128.28972 | 32973 ft | 452 kts | 275° |
| 2026-05-05 12:32 | 68.96251 | -128.46415 | 32977 ft | 452 kts | 275° |
| 2026-05-05 12:32 | 68.96745 | -128.63832 | 32968 ft | 451 kts | 275° |
| 2026-05-05 12:33 | 68.97222 | -128.81263 | 32976 ft | 451 kts | 274° |
| 2026-05-05 12:33 | 68.97681 | -128.98680 | 32966 ft | 451 kts | 274° |
| 2026-05-05 12:34 | 68.98120 | -129.15966 | 32974 ft | 451 kts | 274° |
| 2026-05-05 12:34 | 68.98544 | -129.33385 | 32974 ft | 450 kts | 274° |
| 2026-05-05 12:35 | 68.98948 | -129.50801 | 32964 ft | 450 kts | 274° |
| 2026-05-05 12:35 | 68.99337 | -129.68224 | 32973 ft | 451 kts | 274° |
| 2026-05-05 12:36 | 68.99524 | -129.76868 | 33149 ft | 453 kts | 274° |
| 2026-05-05 12:36 | 68.99709 | -129.85623 | 33497 ft | 451 kts | 273° |
| 2026-05-05 12:36 | 68.99888 | -129.94312 | 33869 ft | 449 kts | 273° |
| 2026-05-05 12:36 | 69.00110 | -130.03005 | 33949 ft | 452 kts | 276° |
| 2026-05-05 12:37 | 69.00920 | -130.20348 | 33962 ft | 449 kts | 277° |
| 2026-05-05 12:37 | 69.01732 | -130.37502 | 33965 ft | 445 kts | 277° |
| 2026-05-05 12:38 | 69.02513 | -130.54525 | 33955 ft | 445 kts | 277° |
| 2026-05-05 12:38 | 69.03272 | -130.71641 | 33949 ft | 445 kts | 276° |
| 2026-05-05 12:39 | 69.04010 | -130.88793 | 33959 ft | 445 kts | 276° |
| 2026-05-05 12:39 | 69.04732 | -131.05975 | 33957 ft | 445 kts | 276° |
| 2026-05-05 12:40 | 69.05433 | -131.23069 | 33952 ft | 446 kts | 276° |
| 2026-05-05 12:40 | 69.06122 | -131.40309 | 33953 ft | 446 kts | 276° |
| 2026-05-05 12:41 | 69.06792 | -131.57543 | 33949 ft | 446 kts | 276° |
| 2026-05-05 12:41 | 69.07448 | -131.74801 | 33953 ft | 446 kts | 275° |
| 2026-05-05 12:42 | 69.08084 | -131.92071 | 33956 ft | 446 kts | 275° |
| 2026-05-05 12:42 | 69.08699 | -132.09223 | 33960 ft | 446 kts | 275° |
| 2026-05-05 12:43 | 69.09302 | -132.26506 | 33950 ft | 446 kts | 275° |
| 2026-05-05 12:43 | 69.09886 | -132.43774 | 33945 ft | 446 kts | 275° |
| 2026-05-05 12:44 | 69.10449 | -132.60942 | 33952 ft | 446 kts | 274° |
| 2026-05-05 12:44 | 69.10998 | -132.78227 | 33939 ft | 445 kts | 274° |
| 2026-05-05 12:45 | 69.11530 | -132.95500 | 33942 ft | 445 kts | 274° |
| 2026-05-05 12:45 | 69.12044 | -133.12791 | 33946 ft | 445 kts | 274° |
| 2026-05-05 12:46 | 69.12542 | -133.30093 | 33941 ft | 445 kts | 274° |
| 2026-05-05 12:46 | 69.13018 | -133.47273 | 33942 ft | 445 kts | 273° |
| 2026-05-05 12:47 | 69.13480 | -133.64603 | 33938 ft | 446 kts | 273° |
| 2026-05-05 12:47 | 69.13926 | -133.81949 | 33933 ft | 446 kts | 273° |
| 2026-05-05 12:48 | 69.14355 | -133.99306 | 33937 ft | 446 kts | 273° |
| 2026-05-05 12:48 | 69.14763 | -134.16561 | 33934 ft | 446 kts | 272° |
| 2026-05-05 12:49 | 69.15156 | -134.33930 | 33937 ft | 446 kts | 272° |
| 2026-05-05 12:49 | 69.15532 | -134.51332 | 33934 ft | 447 kts | 272° |
| 2026-05-05 12:50 | 69.15891 | -134.68744 | 33937 ft | 447 kts | 272° |
| 2026-05-05 12:50 | 69.16229 | -134.86051 | 33938 ft | 447 kts | 271° |
| 2026-05-05 12:51 | 69.16553 | -135.03489 | 33933 ft | 447 kts | 271° |
| 2026-05-05 12:51 | 69.16860 | -135.20915 | 33934 ft | 447 kts | 271° |
| 2026-05-05 12:52 | 69.17149 | -135.38360 | 33934 ft | 447 kts | 271° |
| 2026-05-05 12:52 | 69.17417 | -135.55697 | 33937 ft | 447 kts | 271° |
| 2026-05-05 12:53 | 69.17670 | -135.73163 | 33927 ft | 447 kts | 270° |
| 2026-05-05 12:53 | 69.17907 | -135.90651 | 33926 ft | 448 kts | 270° |
| 2026-05-05 12:54 | 69.18228 | -136.16894 | 33919 ft | 448 kts | 270° |
| 2026-05-05 12:55 | 69.18419 | -136.34302 | 33917 ft | 448 kts | 270° |
| 2026-05-05 12:55 | 69.18593 | -136.51833 | 33918 ft | 449 kts | 269° |
| 2026-05-05 12:56 | 69.18750 | -136.69371 | 33917 ft | 449 kts | 269° |
| 2026-05-05 12:56 | 69.18889 | -136.86914 | 33912 ft | 449 kts | 269° |
| 2026-05-05 12:57 | 69.19010 | -137.04334 | 33906 ft | 449 kts | 269° |
| 2026-05-05 12:57 | 69.19112 | -137.21890 | 33907 ft | 449 kts | 269° |
| 2026-05-05 12:58 | 69.19198 | -137.39452 | 33906 ft | 449 kts | 268° |
| 2026-05-05 12:58 | 69.19267 | -137.56987 | 33901 ft | 449 kts | 268° |
| 2026-05-05 12:59 | 69.19315 | -137.74423 | 33899 ft | 449 kts | 268° |
| 2026-05-05 12:59 | 69.19346 | -137.91973 | 33897 ft | 448 kts | 268° |
| 2026-05-05 13:00 | 69.19361 | -138.18291 | 33887 ft | 449 kts | 268° |
| 2026-05-05 13:01 | 69.19318 | -138.53299 | 33885 ft | 450 kts | 267° |
| 2026-05-05 13:01 | 69.19271 | -138.70887 | 33890 ft | 450 kts | 267° |
| 2026-05-05 13:02 | 69.19204 | -138.88493 | 33879 ft | 450 kts | 267° |
| 2026-05-05 13:02 | 69.19118 | -139.05983 | 33879 ft | 450 kts | 266° |
| 2026-05-05 13:03 | 69.19017 | -139.23570 | 33879 ft | 450 kts | 266° |
| 2026-05-05 13:03 | 69.18898 | -139.41178 | 33873 ft | 451 kts | 266° |
| 2026-05-05 13:04 | 69.18760 | -139.58806 | 33877 ft | 451 kts | 266° |
| 2026-05-05 13:04 | 69.18603 | -139.76437 | 33868 ft | 451 kts | 266° |
| 2026-05-05 13:05 | 69.18431 | -139.93928 | 33866 ft | 451 kts | 265° |
| 2026-05-05 13:05 | 69.18238 | -140.11539 | 33870 ft | 451 kts | 265° |
| 2026-05-05 13:06 | 69.18030 | -140.29155 | 33877 ft | 451 kts | 265° |
| 2026-05-05 13:06 | 69.17803 | -140.46666 | 33865 ft | 452 kts | 265° |
| 2026-05-05 13:07 | 69.17555 | -140.64290 | 33863 ft | 452 kts | 265° |
| 2026-05-05 13:07 | 69.17295 | -140.81928 | 33866 ft | 452 kts | 264° |
| 2026-05-05 13:08 | 69.16999 | -140.99549 | 33866 ft | 451 kts | 263° |
| 2026-05-05 13:08 | 69.16136 | -141.16817 | 33857 ft | 450 kts | 258° |
| 2026-05-05 13:09 | 69.15121 | -141.34169 | 33814 ft | 451 kts | 258° |
| 2026-05-05 13:09 | 69.14103 | -141.51519 | 33804 ft | 451 kts | 258° |
| 2026-05-05 13:10 | 69.13084 | -141.68847 | 33802 ft | 450 kts | 258° |
| 2026-05-05 13:10 | 69.12054 | -141.86138 | 33805 ft | 450 kts | 258° |
| 2026-05-05 13:11 | 69.11013 | -142.03308 | 33806 ft | 450 kts | 258° |
| 2026-05-05 13:11 | 69.09948 | -142.20558 | 33805 ft | 449 kts | 257° |
| 2026-05-05 13:12 | 69.08869 | -142.37768 | 33802 ft | 449 kts | 257° |
| 2026-05-05 13:12 | 69.07771 | -142.54993 | 33802 ft | 450 kts | 257° |
| 2026-05-05 13:13 | 69.06658 | -142.72113 | 33786 ft | 451 kts | 257° |
| 2026-05-05 13:13 | 69.05521 | -142.89347 | 33803 ft | 451 kts | 257° |
| 2026-05-05 13:14 | 69.04366 | -143.06582 | 33791 ft | 451 kts | 256° |
| 2026-05-05 13:14 | 69.03194 | -143.23795 | 33785 ft | 452 kts | 256° |
| 2026-05-05 13:15 | 69.02011 | -143.40896 | 33781 ft | 452 kts | 256° |
| 2026-05-05 13:15 | 69.00804 | -143.58088 | 33771 ft | 452 kts | 256° |
| 2026-05-05 13:16 | 68.99576 | -143.75265 | 33787 ft | 452 kts | 256° |
| 2026-05-05 13:16 | 68.98333 | -143.92425 | 33789 ft | 452 kts | 256° |
| 2026-05-05 13:17 | 68.97084 | -144.09429 | 33783 ft | 451 kts | 255° |
| 2026-05-05 13:17 | 68.95810 | -144.26514 | 33790 ft | 452 kts | 255° |
| 2026-05-05 13:18 | 68.94514 | -144.43638 | 33772 ft | 452 kts | 255° |
| 2026-05-05 13:18 | 68.93201 | -144.60743 | 33765 ft | 453 kts | 255° |
| 2026-05-05 13:19 | 68.91875 | -144.77747 | 33775 ft | 453 kts | 255° |
| 2026-05-05 13:19 | 68.90523 | -144.94867 | 33761 ft | 455 kts | 255° |
| 2026-05-05 13:20 | 68.89152 | -145.12008 | 33757 ft | 456 kts | 255° |
| 2026-05-05 13:20 | 68.87758 | -145.29189 | 33772 ft | 457 kts | 255° |
| 2026-05-05 13:21 | 68.86351 | -145.46272 | 33762 ft | 458 kts | 254° |
| 2026-05-05 13:21 | 68.84917 | -145.63489 | 33755 ft | 459 kts | 254° |
| 2026-05-05 13:22 | 68.83465 | -145.80674 | 33748 ft | 459 kts | 254° |
| 2026-05-05 13:22 | 68.81993 | -145.97859 | 33756 ft | 459 kts | 254° |
| 2026-05-05 13:23 | 68.80504 | -146.15024 | 33749 ft | 459 kts | 254° |
| 2026-05-05 13:23 | 68.79009 | -146.32031 | 33748 ft | 458 kts | 253° |
| 2026-05-05 13:24 | 68.77488 | -146.49120 | 33762 ft | 458 kts | 253° |
| 2026-05-05 13:24 | 68.75952 | -146.66174 | 33755 ft | 458 kts | 253° |
| 2026-05-05 13:25 | 68.74398 | -146.83197 | 33749 ft | 458 kts | 253° |
| 2026-05-05 13:25 | 68.72834 | -147.00108 | 33765 ft | 459 kts | 253° |
| 2026-05-05 13:26 | 68.71244 | -147.17129 | 33770 ft | 459 kts | 253° |
| 2026-05-05 13:26 | 68.69634 | -147.34142 | 33749 ft | 460 kts | 252° |
| 2026-05-05 13:27 | 68.68016 | -147.51015 | 33770 ft | 459 kts | 252° |
| 2026-05-05 13:27 | 68.66375 | -147.67950 | 33767 ft | 459 kts | 252° |
| 2026-05-05 13:28 | 68.64716 | -147.84867 | 33765 ft | 459 kts | 252° |
| 2026-05-05 13:28 | 68.63041 | -148.01752 | 33762 ft | 458 kts | 252° |
| 2026-05-05 13:29 | 68.61349 | -148.18599 | 33770 ft | 458 kts | 251° |
| 2026-05-05 13:29 | 68.59654 | -148.35308 | 33770 ft | 458 kts | 251° |
| 2026-05-05 13:30 | 68.57930 | -148.52086 | 33780 ft | 459 kts | 251° |
| 2026-05-05 13:30 | 68.56189 | -148.68860 | 33786 ft | 459 kts | 251° |
| 2026-05-05 13:31 | 68.54425 | -148.85659 | 33777 ft | 460 kts | 251° |
| 2026-05-05 13:31 | 68.52654 | -149.02335 | 33783 ft | 461 kts | 251° |
| 2026-05-05 13:32 | 68.50854 | -149.19107 | 33782 ft | 461 kts | 251° |
| 2026-05-05 13:32 | 68.49035 | -149.35885 | 33762 ft | 461 kts | 251° |
| 2026-05-05 13:33 | 68.47200 | -149.52624 | 33761 ft | 461 kts | 250° |
| 2026-05-05 13:33 | 68.45361 | -149.69220 | 33768 ft | 461 kts | 250° |
| 2026-05-05 13:34 | 68.43496 | -149.85861 | 33796 ft | 460 kts | 250° |
| 2026-05-05 13:34 | 68.41613 | -150.02496 | 33797 ft | 460 kts | 250° |
| 2026-05-05 13:35 | 68.39715 | -150.19101 | 33791 ft | 460 kts | 250° |
| 2026-05-05 13:35 | 68.37812 | -150.35566 | 33786 ft | 461 kts | 250° |
| 2026-05-05 13:36 | 68.35881 | -150.52119 | 33792 ft | 461 kts | 250° |
| 2026-05-05 13:36 | 68.33931 | -150.68647 | 33770 ft | 462 kts | 249° |
| 2026-05-05 13:37 | 68.31960 | -150.85201 | 33787 ft | 463 kts | 249° |
| 2026-05-05 13:37 | 68.29963 | -151.01786 | 33785 ft | 465 kts | 249° |
| 2026-05-05 13:38 | 68.27956 | -151.18298 | 33781 ft | 467 kts | 249° |
| 2026-05-05 13:38 | 68.25911 | -151.34963 | 33784 ft | 469 kts | 249° |
| 2026-05-05 13:39 | 68.23846 | -151.51635 | 33788 ft | 470 kts | 249° |
| 2026-05-05 13:39 | 68.21753 | -151.68343 | 33780 ft | 472 kts | 249° |
| 2026-05-05 13:40 | 68.19652 | -151.84973 | 33780 ft | 473 kts | 249° |
| 2026-05-05 13:40 | 68.17513 | -152.01731 | 33785 ft | 474 kts | 249° |
| 2026-05-05 13:41 | 68.15353 | -152.18484 | 33784 ft | 475 kts | 248° |
| 2026-05-05 13:41 | 68.13181 | -152.35177 | 33785 ft | 473 kts | 248° |
| 2026-05-05 13:42 | 68.11010 | -152.51709 | 33780 ft | 473 kts | 248° |
| 2026-05-05 13:42 | 68.08809 | -152.68296 | 33766 ft | 472 kts | 248° |
| 2026-05-05 13:43 | 68.06597 | -152.84815 | 33765 ft | 471 kts | 248° |
| 2026-05-05 13:43 | 68.04371 | -153.01284 | 33772 ft | 471 kts | 248° |
| 2026-05-05 13:44 | 68.02150 | -153.17564 | 33768 ft | 470 kts | 248° |
| 2026-05-05 13:44 | 67.99899 | -153.33911 | 33772 ft | 469 kts | 248° |
| 2026-05-05 13:45 | 67.97632 | -153.50230 | 33754 ft | 470 kts | 248° |
| 2026-05-05 13:45 | 67.95344 | -153.66548 | 33760 ft | 471 kts | 248° |
| 2026-05-05 13:46 | 67.93053 | -153.82743 | 33769 ft | 471 kts | 247° |
| 2026-05-05 13:46 | 67.90731 | -153.99014 | 33761 ft | 472 kts | 247° |
| 2026-05-05 13:47 | 67.88389 | -154.15290 | 33780 ft | 472 kts | 247° |
| 2026-05-05 13:47 | 67.86029 | -154.31546 | 33788 ft | 472 kts | 247° |
| 2026-05-05 13:48 | 67.83668 | -154.47667 | 33788 ft | 472 kts | 247° |
| 2026-05-05 13:48 | 67.81271 | -154.63858 | 33797 ft | 472 kts | 246° |
| 2026-05-05 13:49 | 67.78684 | -154.79779 | 33796 ft | 471 kts | 244° |
| 2026-05-05 13:49 | 67.75996 | -154.95556 | 33804 ft | 471 kts | 244° |
| 2026-05-05 13:50 | 67.73323 | -155.11228 | 33787 ft | 471 kts | 244° |
| 2026-05-05 13:50 | 67.70642 | -155.26990 | 33796 ft | 471 kts | 244° |
| 2026-05-05 13:51 | 67.67956 | -155.42716 | 33810 ft | 471 kts | 244° |
| 2026-05-05 13:51 | 67.65258 | -155.58395 | 33801 ft | 471 kts | 244° |
| 2026-05-05 13:52 | 67.62542 | -155.74050 | 33801 ft | 471 kts | 244° |
| 2026-05-05 13:52 | 67.59830 | -155.89551 | 33806 ft | 470 kts | 244° |
| 2026-05-05 13:53 | 67.57087 | -156.05107 | 33818 ft | 470 kts | 243° |
| 2026-05-05 13:53 | 67.54328 | -156.20634 | 33819 ft | 471 kts | 243° |
| 2026-05-05 13:54 | 67.51552 | -156.36136 | 33818 ft | 471 kts | 243° |
| 2026-05-05 13:54 | 67.48786 | -156.51476 | 33835 ft | 471 kts | 243° |
| 2026-05-05 13:55 | 67.45980 | -156.66909 | 33835 ft | 471 kts | 243° |
| 2026-05-05 13:55 | 67.43158 | -156.82325 | 33826 ft | 472 kts | 243° |
| 2026-05-05 13:56 | 67.40334 | -156.97620 | 33835 ft | 472 kts | 243° |
| 2026-05-05 13:56 | 67.37475 | -157.13001 | 33836 ft | 473 kts | 243° |
| 2026-05-05 13:57 | 67.34598 | -157.28355 | 33840 ft | 474 kts | 243° |
| 2026-05-05 13:57 | 67.31700 | -157.43698 | 33845 ft | 474 kts | 242° |
| 2026-05-05 13:58 | 67.28789 | -157.59011 | 33851 ft | 474 kts | 242° |
| 2026-05-05 13:58 | 67.25884 | -157.74185 | 33861 ft | 474 kts | 242° |
| 2026-05-05 13:59 | 67.21472 | -157.97005 | 33856 ft | 474 kts | 242° |
| 2026-05-05 14:00 | 67.17525 | -158.17199 | 33860 ft | 474 kts | 242° |
| 2026-05-05 14:00 | 67.14062 | -158.34774 | 33862 ft | 474 kts | 242° |
| 2026-05-05 14:01 | 67.11061 | -158.49881 | 33866 ft | 474 kts | 242° |
| 2026-05-05 14:01 | 67.08048 | -158.64923 | 33869 ft | 474 kts | 242° |
| 2026-05-05 14:02 | 67.05026 | -158.79932 | 33864 ft | 474 kts | 242° |
| 2026-05-05 14:02 | 67.02001 | -158.94846 | 33861 ft | 475 kts | 241° |
| 2026-05-05 14:03 | 66.98942 | -159.09795 | 33872 ft | 475 kts | 241° |
| 2026-05-05 14:03 | 66.95864 | -159.24734 | 33899 ft | 475 kts | 241° |
| 2026-05-05 14:04 | 66.92772 | -159.39644 | 33898 ft | 476 kts | 241° |
| 2026-05-05 14:04 | 66.89683 | -159.54436 | 33911 ft | 476 kts | 241° |
| 2026-05-05 14:05 | 66.86556 | -159.69305 | 33917 ft | 477 kts | 241° |
| 2026-05-05 14:05 | 66.83418 | -159.84129 | 33927 ft | 477 kts | 240° |
| 2026-05-05 14:06 | 66.80258 | -159.98948 | 33925 ft | 478 kts | 240° |
| 2026-05-05 14:06 | 66.77101 | -160.13650 | 33924 ft | 478 kts | 240° |
| 2026-05-05 14:07 | 66.73907 | -160.28424 | 33926 ft | 478 kts | 240° |
| 2026-05-05 14:07 | 66.70697 | -160.43163 | 33926 ft | 478 kts | 240° |
| 2026-05-05 14:08 | 66.67474 | -160.57865 | 33929 ft | 478 kts | 240° |
| 2026-05-05 14:08 | 66.64263 | -160.72409 | 33935 ft | 478 kts | 240° |
| 2026-05-05 14:09 | 66.61013 | -160.87032 | 33933 ft | 478 kts | 240° |
| 2026-05-05 14:09 | 66.57750 | -161.01619 | 33952 ft | 478 kts | 240° |
| 2026-05-05 14:10 | 66.54472 | -161.16170 | 33950 ft | 479 kts | 240° |
| 2026-05-05 14:10 | 66.51205 | -161.30578 | 33947 ft | 479 kts | 240° |
| 2026-05-05 14:11 | 66.47896 | -161.45069 | 33959 ft | 479 kts | 240° |
| 2026-05-05 14:11 | 66.44576 | -161.59521 | 33962 ft | 480 kts | 239° |
| 2026-05-05 14:12 | 66.41232 | -161.73974 | 33959 ft | 480 kts | 239° |
| 2026-05-05 14:12 | 66.37901 | -161.88261 | 33963 ft | 480 kts | 239° |
| 2026-05-05 14:13 | 66.34530 | -162.02636 | 33968 ft | 480 kts | 239° |
| 2026-05-05 14:13 | 66.31146 | -162.16980 | 33970 ft | 480 kts | 239° |
| 2026-05-05 14:14 | 66.27748 | -162.31283 | 33970 ft | 480 kts | 239° |
| 2026-05-05 14:14 | 66.24359 | -162.45457 | 33974 ft | 481 kts | 239° |
| 2026-05-05 14:15 | 66.20931 | -162.59696 | 33975 ft | 481 kts | 239° |
| 2026-05-05 14:15 | 66.17494 | -162.73882 | 33982 ft | 481 kts | 239° |
| 2026-05-05 14:16 | 66.14040 | -162.88052 | 33981 ft | 481 kts | 239° |
| 2026-05-05 14:16 | 66.10598 | -163.02075 | 33983 ft | 481 kts | 239° |
| 2026-05-05 14:17 | 66.07124 | -163.16142 | 33979 ft | 481 kts | 238° |
| 2026-05-05 14:17 | 66.03631 | -163.30193 | 33982 ft | 481 kts | 238° |
| 2026-05-05 14:18 | 66.00128 | -163.44193 | 33983 ft | 481 kts | 238° |
| 2026-05-05 14:18 | 65.96606 | -163.58181 | 33981 ft | 482 kts | 238° |
| 2026-05-05 14:19 | 65.93091 | -163.72053 | 33982 ft | 482 kts | 238° |
| 2026-05-05 14:19 | 65.89539 | -163.85988 | 33983 ft | 482 kts | 238° |
| 2026-05-05 14:20 | 65.85974 | -163.99880 | 33979 ft | 482 kts | 238° |
| 2026-05-05 14:20 | 65.82419 | -164.13638 | 33982 ft | 482 kts | 238° |
| 2026-05-05 14:21 | 65.78835 | -164.27440 | 33992 ft | 482 kts | 238° |
| 2026-05-05 14:21 | 65.75234 | -164.41212 | 33999 ft | 482 kts | 238° |
| 2026-05-05 14:22 | 65.71620 | -164.54944 | 34003 ft | 482 kts | 238° |
| 2026-05-05 14:22 | 65.68019 | -164.68553 | 33998 ft | 482 kts | 238° |
| 2026-05-05 14:23 | 65.64381 | -164.82213 | 34001 ft | 482 kts | 238° |
| 2026-05-05 14:23 | 65.60734 | -164.95821 | 34005 ft | 482 kts | 237° |
| 2026-05-05 14:24 | 65.57070 | -165.09406 | 34007 ft | 482 kts | 237° |
| 2026-05-05 14:24 | 65.53393 | -165.22955 | 34014 ft | 482 kts | 237° |
| 2026-05-05 14:25 | 65.49729 | -165.36382 | 34010 ft | 483 kts | 237° |
| 2026-05-05 14:25 | 65.46027 | -165.49866 | 34010 ft | 483 kts | 237° |
| 2026-05-05 14:26 | 65.42313 | -165.63303 | 34027 ft | 482 kts | 237° |
| 2026-05-05 14:26 | 65.38593 | -165.76687 | 34047 ft | 483 kts | 237° |
| 2026-05-05 14:27 | 65.34880 | -165.89971 | 34046 ft | 483 kts | 237° |
| 2026-05-05 14:27 | 65.31128 | -166.03304 | 34047 ft | 483 kts | 237° |
| 2026-05-05 14:28 | 65.27364 | -166.16608 | 34031 ft | 483 kts | 237° |
| 2026-05-05 14:28 | 65.23589 | -166.29866 | 34049 ft | 483 kts | 237° |
| 2026-05-05 14:29 | 65.19833 | -166.42983 | 34048 ft | 483 kts | 237° |
| 2026-05-05 14:29 | 65.16033 | -166.56171 | 34051 ft | 483 kts | 237° |
| 2026-05-05 14:30 | 65.12222 | -166.69321 | 34047 ft | 483 kts | 237° |
| 2026-05-05 14:30 | 65.08400 | -166.82435 | 34049 ft | 483 kts | 236° |
| 2026-05-05 14:31 | 65.04591 | -166.95422 | 34044 ft | 483 kts | 237° |
| 2026-05-05 14:31 | 65.00752 | -167.08445 | 34038 ft | 483 kts | 236° |
| 2026-05-05 14:32 | 64.96898 | -167.21445 | 34047 ft | 483 kts | 236° |
| 2026-05-05 14:32 | 64.93030 | -167.34405 | 34045 ft | 483 kts | 236° |
| 2026-05-05 14:33 | 64.89176 | -167.47248 | 34029 ft | 483 kts | 236° |
| 2026-05-05 14:33 | 64.85285 | -167.60142 | 34027 ft | 483 kts | 236° |
| 2026-05-05 14:34 | 64.81386 | -167.72982 | 34029 ft | 483 kts | 236° |
| 2026-05-05 14:34 | 64.77473 | -167.85801 | 34051 ft | 483 kts | 236° |
| 2026-05-05 14:35 | 64.73573 | -167.98502 | 34034 ft | 483 kts | 236° |
| 2026-05-05 14:35 | 64.69637 | -168.11253 | 34049 ft | 483 kts | 236° |
| 2026-05-05 14:36 | 64.65688 | -168.23974 | 34047 ft | 484 kts | 236° |
| 2026-05-05 14:36 | 64.61732 | -168.36642 | 34045 ft | 483 kts | 236° |
| 2026-05-05 14:37 | 64.57763 | -168.49277 | 34049 ft | 483 kts | 236° |
| 2026-05-05 14:37 | 64.53810 | -168.61794 | 34052 ft | 483 kts | 236° |
| 2026-05-05 14:38 | 64.49822 | -168.74362 | 34057 ft | 483 kts | 236° |
| 2026-05-05 14:38 | 64.45822 | -168.86881 | 34065 ft | 483 kts | 234° |
| 2026-05-05 14:39 | 64.41445 | -168.98697 | 34069 ft | 484 kts | 230° |
| 2026-05-05 14:39 | 64.36976 | -169.10214 | 34066 ft | 484 kts | 230° |
| 2026-05-05 14:40 | 64.32481 | -169.21791 | 34080 ft | 484 kts | 230° |
| 2026-05-05 14:40 | 64.27993 | -169.33347 | 34085 ft | 484 kts | 230° |
| 2026-05-05 14:41 | 64.23500 | -169.44875 | 34082 ft | 484 kts | 230° |
| 2026-05-05 14:41 | 64.19029 | -169.56290 | 34084 ft | 484 kts | 230° |
| 2026-05-05 14:42 | 64.14515 | -169.67744 | 34081 ft | 484 kts | 230° |
| 2026-05-05 14:42 | 64.09999 | -169.79153 | 34090 ft | 484 kts | 230° |
| 2026-05-05 14:43 | 64.05468 | -169.90535 | 34092 ft | 484 kts | 230° |
| 2026-05-05 14:43 | 64.00961 | -170.01799 | 34090 ft | 484 kts | 230° |
| 2026-05-05 14:44 | 63.96410 | -170.13111 | 34097 ft | 484 kts | 230° |
| 2026-05-05 14:44 | 63.91854 | -170.24384 | 34089 ft | 484 kts | 230° |
| 2026-05-05 14:45 | 63.87288 | -170.35618 | 34090 ft | 484 kts | 230° |
| 2026-05-05 14:45 | 63.82743 | -170.46740 | 34097 ft | 484 kts | 230° |
| 2026-05-05 14:46 | 63.78161 | -170.57901 | 34093 ft | 484 kts | 230° |
| 2026-05-05 14:46 | 63.73570 | -170.69024 | 34095 ft | 484 kts | 230° |
| 2026-05-05 14:47 | 63.68975 | -170.80102 | 34095 ft | 484 kts | 230° |
| 2026-05-05 14:47 | 63.64396 | -170.91084 | 34091 ft | 484 kts | 230° |
| 2026-05-05 14:48 | 63.59777 | -171.02107 | 34093 ft | 484 kts | 230° |
| 2026-05-05 14:48 | 63.55148 | -171.13094 | 34096 ft | 484 kts | 230° |
| 2026-05-05 14:49 | 63.50519 | -171.24030 | 34097 ft | 484 kts | 230° |
| 2026-05-05 14:49 | 63.45877 | -171.34942 | 34087 ft | 484 kts | 229° |
| 2026-05-05 14:50 | 63.41257 | -171.45746 | 34088 ft | 484 kts | 229° |
| 2026-05-05 14:50 | 63.36592 | -171.56594 | 34129 ft | 486 kts | 229° |
| 2026-05-05 14:51 | 63.34246 | -171.62039 | 34372 ft | 487 kts | 229° |
| 2026-05-05 14:51 | 63.31899 | -171.67469 | 34713 ft | 486 kts | 229° |
| 2026-05-05 14:51 | 63.29558 | -171.72869 | 35068 ft | 484 kts | 229° |
| 2026-05-05 14:51 | 63.27225 | -171.78235 | 35398 ft | 483 kts | 229° |
| 2026-05-05 14:52 | 63.24916 | -171.83533 | 35675 ft | 483 kts | 229° |
| 2026-05-05 14:52 | 63.22583 | -171.88874 | 35916 ft | 483 kts | 229° |
| 2026-05-05 14:52 | 63.20240 | -171.94230 | 36018 ft | 485 kts | 229° |
| 2026-05-05 14:52 | 63.17883 | -171.99600 | 36072 ft | 487 kts | 228° |
| 2026-05-05 14:53 | 63.13170 | -172.10298 | 36083 ft | 483 kts | 228° |
| 2026-05-05 14:53 | 63.08485 | -172.20873 | 36088 ft | 480 kts | 228° |
| 2026-05-05 14:54 | 63.03848 | -172.31291 | 36089 ft | 478 kts | 228° |
| 2026-05-05 14:54 | 62.99188 | -172.41716 | 36096 ft | 478 kts | 228° |
| 2026-05-05 14:55 | 62.94510 | -172.52138 | 36098 ft | 479 kts | 228° |
| 2026-05-05 14:55 | 62.89806 | -172.62560 | 36097 ft | 481 kts | 228° |
| 2026-05-05 14:56 | 62.85106 | -172.72914 | 36098 ft | 483 kts | 228° |
| 2026-05-05 14:56 | 62.80360 | -172.83329 | 36095 ft | 484 kts | 228° |
| 2026-05-05 14:57 | 62.75591 | -172.93741 | 36092 ft | 485 kts | 227° |
| 2026-05-05 14:57 | 62.70811 | -173.04126 | 36093 ft | 485 kts | 227° |
| 2026-05-05 14:58 | 62.66058 | -173.14404 | 36092 ft | 485 kts | 227° |
| 2026-05-05 14:58 | 62.61271 | -173.24703 | 36091 ft | 484 kts | 227° |
| 2026-05-05 14:59 | 62.56485 | -173.34953 | 36091 ft | 483 kts | 227° |
| 2026-05-05 14:59 | 62.51703 | -173.45148 | 36093 ft | 482 kts | 227° |
| 2026-05-05 15:00 | 62.47721 | -173.53599 | 36102 ft | 482 kts | 227° |
| 2026-05-05 15:00 | 62.42151 | -173.65362 | 36102 ft | 482 kts | 227° |
| 2026-05-05 15:01 | 62.37351 | -173.75452 | 36103 ft | 482 kts | 227° |
| 2026-05-05 15:01 | 62.32541 | -173.85509 | 36101 ft | 482 kts | 227° |
| 2026-05-05 15:02 | 62.27730 | -173.95524 | 36101 ft | 482 kts | 227° |
| 2026-05-05 15:02 | 62.22944 | -174.05439 | 36111 ft | 481 kts | 226° |
| 2026-05-05 15:03 | 62.18131 | -174.15370 | 36098 ft | 479 kts | 226° |
| 2026-05-05 15:03 | 62.13329 | -174.25226 | 36099 ft | 478 kts | 226° |
| 2026-05-05 15:04 | 62.08532 | -174.35021 | 36099 ft | 476 kts | 226° |
| 2026-05-05 15:04 | 62.03779 | -174.44690 | 36102 ft | 475 kts | 226° |
| 2026-05-05 15:05 | 61.96589 | -174.59239 | 36103 ft | 476 kts | 226° |
| 2026-05-05 15:06 | 61.91782 | -174.68905 | 36103 ft | 476 kts | 226° |
| 2026-05-05 15:06 | 61.86995 | -174.78483 | 36103 ft | 476 kts | 226° |
| 2026-05-05 15:07 | 61.82166 | -174.88107 | 36103 ft | 477 kts | 225° |
| 2026-05-05 15:07 | 61.77331 | -174.97699 | 36105 ft | 477 kts | 225° |
| 2026-05-05 15:08 | 61.72484 | -175.07273 | 36111 ft | 477 kts | 225° |
| 2026-05-05 15:08 | 61.67658 | -175.16756 | 36112 ft | 478 kts | 225° |
| 2026-05-05 15:09 | 61.62791 | -175.26279 | 36111 ft | 478 kts | 225° |
| 2026-05-05 15:09 | 61.57922 | -175.35772 | 36112 ft | 478 kts | 225° |
| 2026-05-05 15:10 | 61.53042 | -175.45239 | 36110 ft | 478 kts | 225° |
| 2026-05-05 15:10 | 61.48189 | -175.54610 | 36113 ft | 477 kts | 225° |
| 2026-05-05 15:11 | 61.43300 | -175.64006 | 36110 ft | 477 kts | 225° |
| 2026-05-05 15:11 | 61.38407 | -175.73369 | 36110 ft | 477 kts | 225° |
| 2026-05-05 15:12 | 61.33517 | -175.82686 | 36108 ft | 476 kts | 225° |
| 2026-05-05 15:12 | 61.28653 | -175.91914 | 36111 ft | 476 kts | 224° |
| 2026-05-05 15:13 | 61.23753 | -176.01168 | 36119 ft | 476 kts | 224° |
| 2026-05-05 15:13 | 61.18855 | -176.10377 | 36123 ft | 475 kts | 224° |
| 2026-05-05 15:14 | 61.13947 | -176.19568 | 36117 ft | 476 kts | 224° |
| 2026-05-05 15:14 | 61.09032 | -176.28727 | 36125 ft | 475 kts | 224° |
| 2026-05-05 15:15 | 61.04145 | -176.37797 | 36123 ft | 475 kts | 224° |
| 2026-05-05 15:15 | 60.99216 | -176.46903 | 36121 ft | 476 kts | 224° |
| 2026-05-05 15:16 | 60.94279 | -176.55987 | 36121 ft | 476 kts | 224° |
| 2026-05-05 15:16 | 60.89335 | -176.65042 | 36123 ft | 477 kts | 224° |
| 2026-05-05 15:17 | 60.84410 | -176.74028 | 36117 ft | 477 kts | 224° |
| 2026-05-05 15:17 | 60.79443 | -176.83049 | 36115 ft | 477 kts | 223° |
| 2026-05-05 15:18 | 60.75314 | -176.90519 | 36118 ft | 477 kts | 223° |
| 2026-05-05 15:18 | 60.70338 | -176.99488 | 36125 ft | 477 kts | 223° |
| 2026-05-05 15:19 | 60.64548 | -177.09870 | 36119 ft | 477 kts | 223° |
| 2026-05-05 15:19 | 60.59559 | -177.18775 | 36123 ft | 477 kts | 223° |
| 2026-05-05 15:20 | 60.55408 | -177.26157 | 36122 ft | 477 kts | 223° |
| 2026-05-05 15:20 | 60.50419 | -177.34999 | 36119 ft | 476 kts | 223° |
| 2026-05-05 15:21 | 60.44599 | -177.45258 | 36120 ft | 477 kts | 223° |
| 2026-05-05 15:21 | 60.40405 | -177.52621 | 36109 ft | 477 kts | 223° |
| 2026-05-05 15:22 | 60.35424 | -177.61332 | 36109 ft | 476 kts | 223° |
| 2026-05-05 15:22 | 60.30409 | -177.70070 | 36113 ft | 476 kts | 223° |
| 2026-05-05 15:23 | 60.24578 | -177.80188 | 36109 ft | 476 kts | 223° |
| 2026-05-05 15:23 | 60.20406 | -177.87408 | 36109 ft | 475 kts | 224° |
| 2026-05-05 15:24 | 60.15875 | -177.96977 | 36111 ft | 472 kts | 231° |
| 2026-05-05 15:24 | 60.11598 | -178.06992 | 36112 ft | 473 kts | 231° |
| 2026-05-05 15:25 | 60.07300 | -178.16971 | 36112 ft | 473 kts | 231° |
| 2026-05-05 15:25 | 60.02975 | -178.26906 | 36114 ft | 473 kts | 231° |
| 2026-05-05 15:26 | 59.98666 | -178.36733 | 36115 ft | 474 kts | 230° |
| 2026-05-05 15:26 | 59.94312 | -178.46614 | 36113 ft | 474 kts | 230° |
| 2026-05-05 15:27 | 59.89950 | -178.56477 | 36109 ft | 474 kts | 230° |
| 2026-05-05 15:27 | 59.85581 | -178.66314 | 36109 ft | 474 kts | 230° |
| 2026-05-05 15:28 | 59.81236 | -178.76054 | 36108 ft | 474 kts | 230° |
| 2026-05-05 15:28 | 59.76863 | -178.85820 | 36106 ft | 473 kts | 230° |
| 2026-05-05 15:29 | 59.72482 | -178.95561 | 36116 ft | 473 kts | 230° |
| 2026-05-05 15:29 | 59.68106 | -179.05247 | 36179 ft | 471 kts | 230° |
| 2026-05-05 15:30 | 59.63798 | -179.14741 | 36182 ft | 471 kts | 230° |
| 2026-05-05 15:30 | 59.59412 | -179.24369 | 36197 ft | 471 kts | 230° |
| 2026-05-05 15:31 | 59.55021 | -179.33968 | 36188 ft | 472 kts | 229° |
| 2026-05-05 15:31 | 59.50618 | -179.43552 | 36196 ft | 472 kts | 229° |
| 2026-05-05 15:32 | 59.46235 | -179.53052 | 36189 ft | 472 kts | 229° |
| 2026-05-05 15:32 | 59.41816 | -179.62589 | 36192 ft | 472 kts | 229° |
| 2026-05-05 15:33 | 59.37392 | -179.72099 | 36191 ft | 472 kts | 229° |
| 2026-05-05 15:33 | 59.32961 | -179.81588 | 36191 ft | 472 kts | 229° |
| 2026-05-05 15:34 | 59.28552 | -179.90983 | 36199 ft | 471 kts | 229° |
| 2026-05-05 15:34 | 59.24115 | 179.99598 | 36203 ft | 471 kts | 229° |
| 2026-05-05 15:35 | 59.19677 | 179.90214 | 36177 ft | 471 kts | 229° |
| 2026-05-05 15:35 | 59.15214 | 179.80817 | 36094 ft | 473 kts | 229° |
| 2026-05-05 15:36 | 59.10735 | 179.71427 | 36027 ft | 473 kts | 229° |
| 2026-05-05 15:36 | 59.06300 | 179.62167 | 36026 ft | 471 kts | 229° |
| 2026-05-05 15:37 | 59.01830 | 179.52872 | 36025 ft | 469 kts | 229° |
| 2026-05-05 15:37 | 58.97374 | 179.43640 | 36026 ft | 468 kts | 228° |
| 2026-05-05 15:38 | 58.92914 | 179.34440 | 36030 ft | 468 kts | 228° |
| 2026-05-05 15:38 | 58.88481 | 179.25332 | 36027 ft | 468 kts | 228° |
| 2026-05-05 15:39 | 58.84010 | 179.16179 | 36029 ft | 468 kts | 228° |
| 2026-05-05 15:39 | 58.79530 | 179.07049 | 36029 ft | 469 kts | 228° |
| 2026-05-05 15:40 | 58.75037 | 178.97929 | 36029 ft | 469 kts | 228° |
| 2026-05-05 15:40 | 58.70557 | 178.88871 | 36028 ft | 470 kts | 228° |
| 2026-05-05 15:41 | 58.66049 | 178.79791 | 36028 ft | 470 kts | 228° |
| 2026-05-05 15:41 | 58.61526 | 178.70719 | 36029 ft | 471 kts | 228° |
| 2026-05-05 15:42 | 58.56987 | 178.61654 | 36029 ft | 471 kts | 228° |
| 2026-05-05 15:42 | 58.52481 | 178.52689 | 36027 ft | 470 kts | 228° |
| 2026-05-05 15:43 | 58.47938 | 178.43690 | 36026 ft | 470 kts | 228° |
| 2026-05-05 15:43 | 58.43395 | 178.34718 | 36028 ft | 470 kts | 228° |
| 2026-05-05 15:44 | 58.38845 | 178.25773 | 36027 ft | 470 kts | 228° |
| 2026-05-05 15:44 | 58.34324 | 178.16915 | 36019 ft | 470 kts | 228° |
| 2026-05-05 15:45 | 58.29760 | 178.08012 | 36018 ft | 469 kts | 228° |
| 2026-05-05 15:45 | 58.25193 | 177.99136 | 36019 ft | 469 kts | 228° |
| 2026-05-05 15:46 | 58.20651 | 177.90344 | 36018 ft | 469 kts | 228° |
| 2026-05-05 15:46 | 58.16072 | 177.81520 | 36020 ft | 470 kts | 227° |
| 2026-05-05 15:47 | 58.11483 | 177.72704 | 36019 ft | 470 kts | 227° |
| 2026-05-05 15:47 | 58.06893 | 177.63920 | 36019 ft | 470 kts | 227° |
| 2026-05-05 15:48 | 58.02328 | 177.55222 | 36018 ft | 470 kts | 227° |
| 2026-05-05 15:48 | 57.97722 | 177.46479 | 35984 ft | 470 kts | 227° |
| 2026-05-05 15:49 | 57.93108 | 177.37755 | 35977 ft | 470 kts | 227° |
| 2026-05-05 15:49 | 57.88493 | 177.29061 | 35971 ft | 469 kts | 227° |
| 2026-05-05 15:50 | 57.83908 | 177.20455 | 35972 ft | 469 kts | 227° |
| 2026-05-05 15:50 | 57.79294 | 177.11831 | 35971 ft | 468 kts | 227° |
| 2026-05-05 15:51 | 57.74670 | 177.03221 | 35971 ft | 468 kts | 227° |
| 2026-05-05 15:51 | 57.70056 | 176.94668 | 35971 ft | 467 kts | 227° |
| 2026-05-05 15:52 | 57.65462 | 176.86170 | 35962 ft | 467 kts | 227° |
| 2026-05-05 15:52 | 57.60847 | 176.77665 | 35963 ft | 466 kts | 227° |
| 2026-05-05 15:53 | 57.56224 | 176.69188 | 35962 ft | 466 kts | 227° |
| 2026-05-05 15:53 | 57.51596 | 176.60734 | 35964 ft | 466 kts | 227° |
| 2026-05-05 15:54 | 57.46966 | 176.52308 | 35963 ft | 466 kts | 227° |
| 2026-05-05 15:54 | 57.42359 | 176.43951 | 35964 ft | 466 kts | 227° |
| 2026-05-05 15:55 | 57.37710 | 176.35550 | 35963 ft | 466 kts | 226° |
| 2026-05-05 15:55 | 57.33060 | 176.27175 | 35964 ft | 467 kts | 226° |
| 2026-05-05 15:56 | 57.28428 | 176.18870 | 35963 ft | 467 kts | 226° |
| 2026-05-05 15:56 | 57.23765 | 176.10538 | 35962 ft | 467 kts | 226° |
| 2026-05-05 15:57 | 57.19088 | 176.02214 | 35965 ft | 467 kts | 226° |
| 2026-05-05 15:57 | 57.14413 | 175.93919 | 35971 ft | 466 kts | 226° |
| 2026-05-05 15:58 | 57.09770 | 175.85713 | 35971 ft | 466 kts | 226° |
| 2026-05-05 15:58 | 57.05093 | 175.77482 | 35973 ft | 465 kts | 226° |
| 2026-05-05 15:59 | 57.00421 | 175.69284 | 35971 ft | 464 kts | 226° |
| 2026-05-05 15:59 | 56.95746 | 175.61112 | 35972 ft | 464 kts | 226° |
| 2026-05-05 16:00 | 56.91114 | 175.53043 | 35971 ft | 463 kts | 226° |
| 2026-05-05 16:00 | 56.86435 | 175.44926 | 35973 ft | 463 kts | 225° |
| 2026-05-05 16:01 | 56.81761 | 175.36845 | 35972 ft | 463 kts | 225° |
| 2026-05-05 16:01 | 56.77090 | 175.28798 | 35973 ft | 462 kts | 225° |
| 2026-05-05 16:02 | 56.72438 | 175.20813 | 35973 ft | 462 kts | 225° |
| 2026-05-05 16:02 | 56.67745 | 175.12783 | 35972 ft | 462 kts | 225° |
| 2026-05-05 16:03 | 56.63051 | 175.04783 | 35973 ft | 463 kts | 225° |
| 2026-05-05 16:03 | 56.58356 | 174.96808 | 35972 ft | 463 kts | 225° |
| 2026-05-05 16:04 | 56.53646 | 174.88841 | 35973 ft | 463 kts | 225° |
| 2026-05-05 16:04 | 56.48971 | 174.80957 | 35972 ft | 463 kts | 225° |
| 2026-05-05 16:05 | 56.44257 | 174.73035 | 35973 ft | 463 kts | 224° |
| 2026-05-05 16:05 | 56.39533 | 174.65125 | 35971 ft | 463 kts | 224° |
| 2026-05-05 16:06 | 56.34843 | 174.57302 | 35972 ft | 462 kts | 224° |
| 2026-05-05 16:06 | 56.30121 | 174.49450 | 35972 ft | 462 kts | 224° |
| 2026-05-05 16:07 | 56.25397 | 174.41625 | 35972 ft | 461 kts | 224° |
| 2026-05-05 16:07 | 56.20671 | 174.33823 | 35973 ft | 461 kts | 224° |
| 2026-05-05 16:08 | 56.15982 | 174.26105 | 35972 ft | 461 kts | 224° |
| 2026-05-05 16:08 | 56.11254 | 174.18352 | 35973 ft | 460 kts | 224° |
| 2026-05-05 16:09 | 56.06527 | 174.10626 | 35971 ft | 460 kts | 224° |
| 2026-05-05 16:09 | 56.01793 | 174.02915 | 35945 ft | 461 kts | 224° |
| 2026-05-05 16:10 | 55.97318 | 173.94841 | 35909 ft | 460 kts | 229° |
| 2026-05-05 16:10 | 55.93054 | 173.86348 | 35905 ft | 459 kts | 229° |
| 2026-05-05 16:11 | 55.88781 | 173.77886 | 35909 ft | 459 kts | 229° |
| 2026-05-05 16:12 | 55.80196 | 173.61065 | 35907 ft | 459 kts | 229° |
| 2026-05-05 16:13 | 55.69464 | 173.40225 | 35908 ft | 458 kts | 229° |
| 2026-05-05 16:13 | 55.65161 | 173.31916 | 35907 ft | 457 kts | 228° |
| 2026-05-05 16:14 | 55.56579 | 173.15437 | 35909 ft | 456 kts | 228° |
| 2026-05-05 16:15 | 55.47969 | 172.99018 | 35916 ft | 455 kts | 228° |
| 2026-05-05 16:16 | 55.39375 | 172.82740 | 35916 ft | 455 kts | 228° |
| 2026-05-05 16:17 | 55.32904 | 172.70557 | 35899 ft | 455 kts | 227° |
| 2026-05-05 16:18 | 55.26414 | 172.58403 | 35900 ft | 454 kts | 227° |
| 2026-05-05 16:19 | 55.19964 | 172.46383 | 35899 ft | 454 kts | 227° |
| 2026-05-05 16:19 | 55.13467 | 172.34336 | 35899 ft | 454 kts | 227° |
| 2026-05-05 16:20 | 55.04795 | 172.18349 | 35899 ft | 453 kts | 227° |
| 2026-05-05 16:22 | 54.93968 | 171.98533 | 35899 ft | 453 kts | 227° |
| 2026-05-05 16:23 | 54.85933 | 171.81742 | 35898 ft | 452 kts | 231° |
| 2026-05-05 16:23 | 54.79975 | 171.69155 | 35898 ft | 452 kts | 231° |
| 2026-05-05 16:24 | 54.75975 | 171.60767 | 35897 ft | 451 kts | 230° |
| 2026-05-05 16:25 | 54.69977 | 171.48237 | 35898 ft | 450 kts | 230° |
| 2026-05-05 16:25 | 54.63998 | 171.35827 | 35898 ft | 450 kts | 230° |
| 2026-05-05 16:26 | 54.55973 | 171.19244 | 35899 ft | 450 kts | 230° |
| 2026-05-05 16:27 | 54.51955 | 171.10995 | 35893 ft | 450 kts | 230° |
| 2026-05-05 16:27 | 54.47953 | 171.02803 | 35890 ft | 450 kts | 230° |
| 2026-05-05 16:28 | 54.43920 | 170.94572 | 35888 ft | 450 kts | 230° |
| 2026-05-05 16:28 | 54.39881 | 170.86353 | 35890 ft | 450 kts | 230° |
| 2026-05-05 16:29 | 54.35861 | 170.78204 | 35888 ft | 451 kts | 229° |
| 2026-05-05 16:29 | 54.31809 | 170.70014 | 35891 ft | 451 kts | 229° |
| 2026-05-05 16:30 | 54.27742 | 170.61822 | 35882 ft | 451 kts | 229° |
| 2026-05-05 16:30 | 54.23674 | 170.53656 | 35882 ft | 451 kts | 229° |
| 2026-05-05 16:31 | 54.19593 | 170.45492 | 35880 ft | 451 kts | 229° |
| 2026-05-05 16:31 | 54.15539 | 170.37410 | 35881 ft | 451 kts | 229° |
| 2026-05-05 16:32 | 54.11447 | 170.29278 | 35871 ft | 451 kts | 229° |
| 2026-05-05 16:32 | 54.07354 | 170.21169 | 35876 ft | 451 kts | 229° |
| 2026-05-05 16:33 | 54.03257 | 170.13081 | 35871 ft | 451 kts | 229° |
| 2026-05-05 16:33 | 53.99187 | 170.05069 | 35868 ft | 451 kts | 229° |
| 2026-05-05 16:34 | 53.95089 | 169.97034 | 35860 ft | 450 kts | 229° |
| 2026-05-05 16:34 | 53.90990 | 169.89022 | 35858 ft | 450 kts | 228° |
| 2026-05-05 16:35 | 53.86870 | 169.80992 | 35855 ft | 450 kts | 228° |
| 2026-05-05 16:35 | 53.82787 | 169.73061 | 35852 ft | 450 kts | 228° |
| 2026-05-05 16:36 | 53.78663 | 169.65076 | 35856 ft | 450 kts | 228° |
| 2026-05-05 16:36 | 53.74542 | 169.57121 | 35850 ft | 450 kts | 228° |
| 2026-05-05 16:37 | 53.70416 | 169.49181 | 35843 ft | 450 kts | 228° |
| 2026-05-05 16:37 | 53.66311 | 169.41305 | 35838 ft | 449 kts | 228° |
| 2026-05-05 16:38 | 53.62410 | 169.33094 | 35849 ft | 449 kts | 235° |
| 2026-05-05 16:38 | 53.59308 | 169.23948 | 35858 ft | 450 kts | 240° |
| 2026-05-05 16:39 | 53.56369 | 169.14645 | 35849 ft | 451 kts | 240° |
| 2026-05-05 16:39 | 53.53415 | 169.05412 | 35847 ft | 451 kts | 240° |
| 2026-05-05 16:40 | 53.50422 | 168.96130 | 35836 ft | 452 kts | 239° |
| 2026-05-05 16:40 | 53.47425 | 168.86870 | 35835 ft | 452 kts | 239° |
| 2026-05-05 16:41 | 53.44416 | 168.77607 | 35827 ft | 453 kts | 239° |
| 2026-05-05 16:41 | 53.41412 | 168.68392 | 35823 ft | 453 kts | 239° |
| 2026-05-05 16:42 | 53.38378 | 168.59123 | 35816 ft | 454 kts | 239° |
| 2026-05-05 16:42 | 53.35333 | 168.49855 | 35808 ft | 454 kts | 239° |
| 2026-05-05 16:43 | 53.32284 | 168.40600 | 35802 ft | 455 kts | 239° |
| 2026-05-05 16:43 | 53.29218 | 168.31345 | 35799 ft | 455 kts | 239° |
| 2026-05-05 16:44 | 53.26162 | 168.22190 | 35789 ft | 455 kts | 239° |
| 2026-05-05 16:44 | 53.23069 | 168.12955 | 35790 ft | 455 kts | 239° |
| 2026-05-05 16:45 | 53.19965 | 168.03722 | 35775 ft | 455 kts | 239° |
| 2026-05-05 16:45 | 53.16867 | 167.94532 | 35765 ft | 455 kts | 238° |
| 2026-05-05 16:46 | 53.13774 | 167.85391 | 35761 ft | 455 kts | 238° |
| 2026-05-05 16:46 | 53.10657 | 167.76214 | 35756 ft | 456 kts | 238° |
| 2026-05-05 16:47 | 53.07527 | 167.67030 | 35749 ft | 456 kts | 238° |
| 2026-05-05 16:47 | 53.04394 | 167.57878 | 35743 ft | 456 kts | 238° |
| 2026-05-05 16:48 | 53.01249 | 167.48724 | 35735 ft | 456 kts | 238° |
| 2026-05-05 16:48 | 52.98124 | 167.39654 | 35730 ft | 456 kts | 238° |
| 2026-05-05 16:49 | 52.94963 | 167.30516 | 35720 ft | 456 kts | 238° |
| 2026-05-05 16:49 | 52.91801 | 167.21408 | 35711 ft | 456 kts | 238° |
| 2026-05-05 16:50 | 52.88626 | 167.12300 | 35689 ft | 456 kts | 238° |
| 2026-05-05 16:50 | 52.85470 | 167.03276 | 35677 ft | 456 kts | 238° |
| 2026-05-05 16:51 | 52.82286 | 166.94208 | 35672 ft | 456 kts | 238° |
| 2026-05-05 16:51 | 52.79092 | 166.85145 | 35657 ft | 456 kts | 238° |
| 2026-05-05 16:52 | 52.75907 | 166.76138 | 35652 ft | 457 kts | 237° |
| 2026-05-05 16:52 | 52.72698 | 166.67096 | 35640 ft | 457 kts | 237° |
| 2026-05-05 16:53 | 52.69479 | 166.58051 | 35643 ft | 458 kts | 237° |
| 2026-05-05 16:53 | 52.66253 | 166.49028 | 35635 ft | 458 kts | 237° |
| 2026-05-05 16:54 | 52.63007 | 166.39979 | 35618 ft | 458 kts | 237° |
| 2026-05-05 16:54 | 52.59784 | 166.31029 | 35610 ft | 458 kts | 237° |
| 2026-05-05 16:55 | 52.56529 | 166.22026 | 35604 ft | 458 kts | 237° |
| 2026-05-05 16:55 | 52.53261 | 166.13014 | 35598 ft | 459 kts | 237° |
| 2026-05-05 16:56 | 52.49993 | 166.04029 | 35588 ft | 459 kts | 237° |
| 2026-05-05 16:56 | 52.46731 | 165.95100 | 35579 ft | 459 kts | 237° |
| 2026-05-05 16:57 | 52.43443 | 165.86129 | 35571 ft | 459 kts | 237° |
| 2026-05-05 16:57 | 52.40146 | 165.77167 | 35563 ft | 460 kts | 237° |
| 2026-05-05 16:58 | 52.36836 | 165.68202 | 35557 ft | 460 kts | 237° |
| 2026-05-05 16:58 | 52.33520 | 165.59251 | 35543 ft | 460 kts | 237° |
| 2026-05-05 16:59 | 52.30222 | 165.50380 | 35542 ft | 460 kts | 237° |
| 2026-05-05 16:59 | 52.26887 | 165.41440 | 35532 ft | 461 kts | 237° |
| 2026-05-05 17:00 | 52.23544 | 165.32508 | 35525 ft | 461 kts | 236° |
| 2026-05-05 17:00 | 52.20188 | 165.23573 | 35515 ft | 462 kts | 236° |
| 2026-05-05 17:01 | 52.16845 | 165.14705 | 35501 ft | 463 kts | 236° |
| 2026-05-05 17:01 | 52.13465 | 165.05776 | 35499 ft | 463 kts | 236° |
| 2026-05-05 17:02 | 52.10076 | 164.96849 | 35487 ft | 464 kts | 236° |
| 2026-05-05 17:02 | 52.06675 | 164.87921 | 35485 ft | 465 kts | 236° |
| 2026-05-05 17:03 | 52.03263 | 164.78998 | 35484 ft | 465 kts | 236° |
| 2026-05-05 17:03 | 51.99859 | 164.70128 | 35476 ft | 466 kts | 236° |
| 2026-05-05 17:04 | 51.96421 | 164.61199 | 35473 ft | 466 kts | 236° |
| 2026-05-05 17:04 | 51.92977 | 164.52284 | 35459 ft | 466 kts | 236° |
| 2026-05-05 17:05 | 51.89530 | 164.43393 | 35451 ft | 466 kts | 236° |
| 2026-05-05 17:05 | 51.86097 | 164.34567 | 35446 ft | 466 kts | 236° |
| 2026-05-05 17:06 | 51.82633 | 164.25693 | 35440 ft | 467 kts | 236° |
| 2026-05-05 17:06 | 51.79161 | 164.16832 | 35436 ft | 467 kts | 236° |
| 2026-05-05 17:07 | 51.75682 | 164.07981 | 35431 ft | 467 kts | 236° |
| 2026-05-05 17:07 | 51.72188 | 163.99124 | 35424 ft | 468 kts | 236° |
| 2026-05-05 17:08 | 51.68712 | 163.90339 | 35417 ft | 468 kts | 236° |
| 2026-05-05 17:08 | 51.65197 | 163.81489 | 35412 ft | 469 kts | 236° |
| 2026-05-05 17:09 | 51.61675 | 163.72643 | 35408 ft | 469 kts | 236° |
| 2026-05-05 17:09 | 51.58147 | 163.63824 | 35403 ft | 469 kts | 236° |
| 2026-05-05 17:10 | 51.54631 | 163.55072 | 35398 ft | 469 kts | 236° |
| 2026-05-05 17:10 | 51.51093 | 163.46288 | 35391 ft | 468 kts | 236° |
| 2026-05-05 17:11 | 51.47552 | 163.37528 | 35388 ft | 468 kts | 236° |
| 2026-05-05 17:11 | 51.44004 | 163.28774 | 35383 ft | 468 kts | 235° |
| 2026-05-05 17:12 | 51.40480 | 163.20109 | 35381 ft | 467 kts | 235° |
| 2026-05-05 17:12 | 51.36923 | 163.11391 | 35376 ft | 467 kts | 235° |
| 2026-05-05 17:13 | 51.33361 | 163.02689 | 35369 ft | 467 kts | 235° |
| 2026-05-05 17:13 | 51.29794 | 162.94009 | 35362 ft | 467 kts | 235° |
| 2026-05-05 17:14 | 51.26244 | 162.85398 | 35364 ft | 467 kts | 235° |
| 2026-05-05 17:14 | 51.22661 | 162.76731 | 35360 ft | 467 kts | 235° |
| 2026-05-05 17:15 | 51.19076 | 162.68093 | 35362 ft | 468 kts | 235° |
| 2026-05-05 17:15 | 51.15474 | 162.59441 | 35357 ft | 468 kts | 235° |
| 2026-05-05 17:16 | 51.11895 | 162.50873 | 35343 ft | 468 kts | 235° |
| 2026-05-05 17:16 | 51.08278 | 162.42241 | 35350 ft | 468 kts | 235° |
| 2026-05-05 17:17 | 51.04660 | 162.33641 | 35369 ft | 468 kts | 235° |
| 2026-05-05 17:17 | 51.01033 | 162.25041 | 35352 ft | 469 kts | 235° |
| 2026-05-05 17:18 | 50.97421 | 162.16508 | 35358 ft | 469 kts | 235° |
| 2026-05-05 17:18 | 50.93778 | 162.07930 | 35349 ft | 469 kts | 235° |
| 2026-05-05 17:19 | 50.90128 | 161.99367 | 35347 ft | 469 kts | 235° |
| 2026-05-05 17:19 | 50.86478 | 161.90826 | 35359 ft | 469 kts | 235° |
| 2026-05-05 17:20 | 50.82814 | 161.82285 | 35347 ft | 469 kts | 235° |
| 2026-05-05 17:20 | 50.79167 | 161.73806 | 35347 ft | 469 kts | 235° |
| 2026-05-05 17:21 | 50.75487 | 161.65285 | 35347 ft | 469 kts | 235° |
| 2026-05-05 17:22 | 50.69956 | 161.52526 | 35347 ft | 469 kts | 235° |
| 2026-05-05 17:22 | 50.66267 | 161.44046 | 35346 ft | 469 kts | 234° |
| 2026-05-05 17:23 | 50.62591 | 161.35627 | 35345 ft | 469 kts | 234° |
| 2026-05-05 17:23 | 50.58885 | 161.27167 | 35347 ft | 469 kts | 234° |
| 2026-05-05 17:24 | 50.55173 | 161.18718 | 35337 ft | 469 kts | 234° |
| 2026-05-05 17:24 | 50.51453 | 161.10280 | 35337 ft | 469 kts | 234° |
| 2026-05-05 17:25 | 50.47758 | 161.01923 | 35334 ft | 469 kts | 234° |
| 2026-05-05 17:25 | 50.44027 | 160.93517 | 35336 ft | 469 kts | 234° |
| 2026-05-05 17:26 | 50.40290 | 160.85122 | 35336 ft | 469 kts | 234° |
| 2026-05-05 17:26 | 50.36549 | 160.76739 | 35336 ft | 469 kts | 234° |
| 2026-05-05 17:27 | 50.32824 | 160.68424 | 35338 ft | 469 kts | 234° |
| 2026-05-05 17:27 | 50.29072 | 160.60075 | 35336 ft | 470 kts | 234° |
| 2026-05-05 17:28 | 50.25310 | 160.51725 | 35336 ft | 470 kts | 234° |
| 2026-05-05 17:28 | 50.21543 | 160.43390 | 35338 ft | 469 kts | 234° |
| 2026-05-05 17:29 | 50.17791 | 160.35131 | 35337 ft | 469 kts | 234° |
| 2026-05-05 17:29 | 50.13994 | 160.26848 | 35336 ft | 469 kts | 234° |
| 2026-05-05 17:30 | 50.10197 | 160.18593 | 35340 ft | 469 kts | 234° |
| 2026-05-05 17:30 | 50.06396 | 160.10345 | 35337 ft | 468 kts | 234° |
| 2026-05-05 17:31 | 50.02592 | 160.02112 | 35339 ft | 468 kts | 234° |
| 2026-05-05 17:31 | 49.98808 | 159.93948 | 35337 ft | 468 kts | 234° |
| 2026-05-05 17:32 | 49.94994 | 159.85742 | 35344 ft | 468 kts | 234° |
| 2026-05-05 17:32 | 49.91177 | 159.77559 | 35347 ft | 468 kts | 234° |
| 2026-05-05 17:33 | 49.87351 | 159.69381 | 35343 ft | 468 kts | 234° |
| 2026-05-05 17:33 | 49.83544 | 159.61267 | 35345 ft | 469 kts | 233° |
| 2026-05-05 17:34 | 49.79705 | 159.53110 | 35349 ft | 469 kts | 233° |
| 2026-05-05 17:34 | 49.75860 | 159.44966 | 35350 ft | 469 kts | 233° |
| 2026-05-05 17:35 | 49.72010 | 159.36832 | 35345 ft | 469 kts | 233° |
| 2026-05-05 17:35 | 49.68153 | 159.28807 | 35348 ft | 469 kts | 233° |
| 2026-05-05 17:36 | 49.64210 | 159.20791 | 35349 ft | 469 kts | 233° |
| 2026-05-05 17:36 | 49.60261 | 159.12794 | 35362 ft | 468 kts | 233° |
| 2026-05-05 17:37 | 49.56318 | 159.04805 | 35351 ft | 468 kts | 233° |
| 2026-05-05 17:37 | 49.52404 | 158.96886 | 35348 ft | 468 kts | 233° |
| 2026-05-05 17:38 | 49.48453 | 158.88914 | 35356 ft | 468 kts | 233° |
| 2026-05-05 17:38 | 49.44496 | 158.80953 | 35361 ft | 469 kts | 233° |
| 2026-05-05 17:39 | 49.40531 | 158.73003 | 35360 ft | 469 kts | 233° |
| 2026-05-05 17:39 | 49.36587 | 158.65118 | 35368 ft | 469 kts | 232° |
| 2026-05-05 17:40 | 49.32609 | 158.57190 | 35367 ft | 469 kts | 232° |
| 2026-05-05 17:40 | 49.28628 | 158.49280 | 35365 ft | 469 kts | 232° |
| 2026-05-05 17:41 | 49.24637 | 158.41370 | 35361 ft | 469 kts | 232° |
| 2026-05-05 17:41 | 49.20663 | 158.33516 | 35315 ft | 470 kts | 232° |
| 2026-05-05 17:42 | 49.16654 | 158.25618 | 35313 ft | 470 kts | 232° |
| 2026-05-05 17:42 | 49.12641 | 158.17739 | 35308 ft | 470 kts | 232° |
| 2026-05-05 17:43 | 49.08633 | 158.09892 | 35314 ft | 469 kts | 232° |
| 2026-05-05 17:43 | 49.04648 | 158.02111 | 35318 ft | 468 kts | 232° |
| 2026-05-05 17:44 | 49.00635 | 157.94299 | 35316 ft | 468 kts | 232° |
| 2026-05-05 17:44 | 48.96619 | 157.86502 | 35319 ft | 468 kts | 232° |
| 2026-05-05 17:45 | 48.92602 | 157.78728 | 35320 ft | 468 kts | 232° |
| 2026-05-05 17:45 | 48.88577 | 157.70959 | 35325 ft | 467 kts | 232° |
| 2026-05-05 17:46 | 48.84574 | 157.63259 | 35329 ft | 467 kts | 232° |
| 2026-05-05 17:46 | 48.80540 | 157.55518 | 35327 ft | 468 kts | 232° |
| 2026-05-05 17:47 | 48.76497 | 157.47784 | 35334 ft | 468 kts | 232° |
| 2026-05-05 17:47 | 48.72452 | 157.40066 | 35335 ft | 468 kts | 232° |
| 2026-05-05 17:48 | 48.68430 | 157.32416 | 35339 ft | 468 kts | 232° |
| 2026-05-05 17:48 | 48.64372 | 157.24720 | 35338 ft | 468 kts | 232° |
| 2026-05-05 17:49 | 48.60308 | 157.17034 | 35344 ft | 468 kts | 232° |
| 2026-05-05 17:49 | 48.56246 | 157.09370 | 35349 ft | 468 kts | 232° |
| 2026-05-05 17:50 | 48.52200 | 157.01760 | 35348 ft | 468 kts | 232° |
| 2026-05-05 17:50 | 48.48126 | 156.94121 | 35347 ft | 468 kts | 232° |
| 2026-05-05 17:51 | 48.44046 | 156.86493 | 35349 ft | 467 kts | 232° |
| 2026-05-05 17:51 | 48.39963 | 156.78883 | 35363 ft | 467 kts | 232° |
| 2026-05-05 17:52 | 48.35905 | 156.71337 | 35363 ft | 467 kts | 232° |
| 2026-05-05 17:52 | 48.31813 | 156.63752 | 35367 ft | 467 kts | 232° |
| 2026-05-05 17:53 | 48.27723 | 156.56189 | 35364 ft | 466 kts | 232° |
| 2026-05-05 17:53 | 48.23628 | 156.48638 | 35368 ft | 466 kts | 232° |
| 2026-05-05 17:54 | 48.19557 | 156.41157 | 35374 ft | 466 kts | 232° |
| 2026-05-05 17:54 | 48.15463 | 156.33647 | 35376 ft | 466 kts | 232° |
| 2026-05-05 17:55 | 48.11360 | 156.26145 | 35374 ft | 465 kts | 232° |
| 2026-05-05 17:55 | 48.07255 | 156.18662 | 35382 ft | 465 kts | 232° |
| 2026-05-05 17:56 | 48.03175 | 156.11244 | 35384 ft | 465 kts | 232° |
| 2026-05-05 17:56 | 47.99069 | 156.03800 | 35387 ft | 465 kts | 232° |
| 2026-05-05 17:57 | 47.94955 | 155.96361 | 35395 ft | 465 kts | 232° |
| 2026-05-05 17:57 | 47.90835 | 155.88930 | 35394 ft | 465 kts | 232° |
| 2026-05-05 17:58 | 47.86707 | 155.81508 | 35397 ft | 465 kts | 231° |
| 2026-05-05 17:58 | 47.82602 | 155.74148 | 35405 ft | 465 kts | 231° |
| 2026-05-05 17:59 | 47.78464 | 155.66748 | 35403 ft | 465 kts | 231° |
| 2026-05-05 17:59 | 47.74325 | 155.59366 | 35410 ft | 465 kts | 231° |
| 2026-05-05 18:00 | 47.70178 | 155.51990 | 35413 ft | 465 kts | 231° |
| 2026-05-05 18:00 | 47.66053 | 155.44676 | 35415 ft | 465 kts | 231° |
| 2026-05-05 18:01 | 47.61897 | 155.37321 | 35423 ft | 465 kts | 231° |
| 2026-05-05 18:01 | 47.57738 | 155.29985 | 35450 ft | 464 kts | 231° |
| 2026-05-05 18:02 | 47.53591 | 155.22686 | 35489 ft | 464 kts | 231° |
| 2026-05-05 18:02 | 47.49461 | 155.15441 | 35499 ft | 463 kts | 232° |
| 2026-05-05 18:03 | 47.45305 | 155.08169 | 35493 ft | 463 kts | 232° |
| 2026-05-05 18:03 | 47.41154 | 155.00921 | 35501 ft | 461 kts | 232° |
| 2026-05-05 18:04 | 47.37008 | 154.93706 | 35503 ft | 460 kts | 232° |
| 2026-05-05 18:04 | 47.32870 | 154.86523 | 35519 ft | 460 kts | 232° |
| 2026-05-05 18:05 | 47.28755 | 154.79398 | 35508 ft | 459 kts | 232° |
| 2026-05-05 18:05 | 47.24612 | 154.72244 | 35518 ft | 459 kts | 232° |
| 2026-05-05 18:06 | 47.20467 | 154.65105 | 35526 ft | 459 kts | 232° |
| 2026-05-05 18:06 | 47.16315 | 154.57971 | 35528 ft | 459 kts | 232° |
| 2026-05-05 18:07 | 47.12189 | 154.50900 | 35535 ft | 459 kts | 232° |
| 2026-05-05 18:07 | 47.08022 | 154.43781 | 35534 ft | 460 kts | 232° |
| 2026-05-05 18:08 | 47.03847 | 154.36667 | 35542 ft | 460 kts | 232° |
| 2026-05-05 18:08 | 46.99668 | 154.29560 | 35545 ft | 460 kts | 232° |
| 2026-05-05 18:09 | 46.95511 | 154.22511 | 35546 ft | 460 kts | 232° |
| 2026-05-05 18:09 | 46.91327 | 154.15436 | 35556 ft | 460 kts | 232° |
| 2026-05-05 18:10 | 46.87135 | 154.08367 | 35553 ft | 460 kts | 232° |
| 2026-05-05 18:10 | 46.82941 | 154.01310 | 35561 ft | 460 kts | 232° |
| 2026-05-05 18:11 | 46.78743 | 153.94270 | 35564 ft | 459 kts | 232° |
| 2026-05-05 18:11 | 46.74574 | 153.87291 | 35564 ft | 459 kts | 232° |
| 2026-05-05 18:12 | 46.70382 | 153.80290 | 35572 ft | 458 kts | 232° |
| 2026-05-05 18:12 | 46.66187 | 153.73305 | 35569 ft | 458 kts | 232° |
| 2026-05-05 18:13 | 46.61994 | 153.66343 | 35578 ft | 457 kts | 232° |
| 2026-05-05 18:13 | 46.57802 | 153.59398 | 35580 ft | 457 kts | 232° |
| 2026-05-05 18:14 | 46.53635 | 153.52514 | 35582 ft | 456 kts | 232° |
| 2026-05-05 18:14 | 46.49434 | 153.45590 | 35593 ft | 457 kts | 232° |
| 2026-05-05 18:15 | 46.45228 | 153.38670 | 35591 ft | 458 kts | 232° |
| 2026-05-05 18:15 | 46.41009 | 153.31750 | 35593 ft | 458 kts | 232° |
| 2026-05-05 18:16 | 46.36814 | 153.24889 | 35601 ft | 458 kts | 232° |
| 2026-05-05 18:16 | 46.32590 | 153.17995 | 35600 ft | 458 kts | 232° |
| 2026-05-05 18:17 | 46.28362 | 153.11115 | 35606 ft | 457 kts | 232° |
| 2026-05-05 18:17 | 46.24854 | 153.05417 | 35613 ft | 457 kts | 232° |
| 2026-05-05 18:18 | 46.19941 | 152.97469 | 35615 ft | 456 kts | 232° |
| 2026-05-05 18:18 | 46.15683 | 152.90680 | 35638 ft | 456 kts | 232° |
| 2026-05-05 18:19 | 46.12139 | 152.85051 | 35632 ft | 456 kts | 232° |
| 2026-05-05 18:19 | 46.07885 | 152.78300 | 35624 ft | 455 kts | 232° |
| 2026-05-05 18:20 | 46.03629 | 152.71556 | 35628 ft | 455 kts | 232° |
| 2026-05-05 18:20 | 45.99376 | 152.64828 | 35638 ft | 454 kts | 232° |
| 2026-05-05 18:21 | 45.95151 | 152.58162 | 35636 ft | 454 kts | 232° |
| 2026-05-05 18:21 | 45.90904 | 152.51480 | 35635 ft | 453 kts | 232° |
| 2026-05-05 18:22 | 45.86656 | 152.44810 | 35646 ft | 452 kts | 232° |
| 2026-05-05 18:22 | 45.82410 | 152.38161 | 35644 ft | 452 kts | 232° |
| 2026-05-05 18:23 | 45.78190 | 152.31569 | 35648 ft | 452 kts | 232° |
| 2026-05-05 18:23 | 45.73939 | 152.24944 | 35653 ft | 452 kts | 232° |
| 2026-05-05 18:24 | 45.69683 | 152.18329 | 35656 ft | 452 kts | 232° |
| 2026-05-05 18:24 | 45.65429 | 152.11727 | 35658 ft | 452 kts | 232° |
| 2026-05-05 18:25 | 45.61162 | 152.05126 | 35658 ft | 452 kts | 232° |
| 2026-05-05 18:25 | 45.56921 | 151.98579 | 35668 ft | 452 kts | 232° |
| 2026-05-05 18:26 | 45.52644 | 151.91995 | 35665 ft | 452 kts | 231° |
| 2026-05-05 18:26 | 45.48362 | 151.85418 | 35666 ft | 452 kts | 231° |
| 2026-05-05 18:27 | 45.44080 | 151.78860 | 35672 ft | 452 kts | 231° |
| 2026-05-05 18:27 | 45.39791 | 151.72301 | 35676 ft | 452 kts | 231° |
| 2026-05-05 18:28 | 45.33376 | 151.62519 | 35676 ft | 453 kts | 231° |
| 2026-05-05 18:28 | 45.29072 | 151.55981 | 35677 ft | 453 kts | 231° |
| 2026-05-05 18:29 | 45.24767 | 151.49452 | 35684 ft | 453 kts | 231° |
| 2026-05-05 18:29 | 45.20463 | 151.42943 | 35684 ft | 453 kts | 231° |
| 2026-05-05 18:30 | 45.16177 | 151.36479 | 35685 ft | 453 kts | 231° |
| 2026-05-05 18:30 | 45.11857 | 151.29975 | 35684 ft | 453 kts | 231° |
| 2026-05-05 18:31 | 45.07534 | 151.23481 | 35693 ft | 453 kts | 231° |
| 2026-05-05 18:31 | 45.03207 | 151.17001 | 35694 ft | 453 kts | 231° |
| 2026-05-05 18:32 | 44.98909 | 151.10577 | 35697 ft | 454 kts | 231° |
| 2026-05-05 18:32 | 44.96731 | 151.07325 | 35822 ft | 457 kts | 231° |
| 2026-05-05 18:32 | 44.94546 | 151.04068 | 36145 ft | 456 kts | 231° |
| 2026-05-05 18:33 | 44.92366 | 151.00826 | 36501 ft | 455 kts | 230° |
| 2026-05-05 18:33 | 44.90190 | 150.97594 | 36847 ft | 453 kts | 230° |
| 2026-05-05 18:33 | 44.88036 | 150.94398 | 37377 ft | 446 kts | 230° |
| 2026-05-05 18:33 | 44.85906 | 150.91241 | 37731 ft | 445 kts | 230° |
| 2026-05-05 18:34 | 44.81636 | 150.84907 | 37703 ft | 450 kts | 230° |
| 2026-05-05 18:34 | 44.77329 | 150.78551 | 37694 ft | 447 kts | 230° |
| 2026-05-05 18:35 | 44.73054 | 150.72247 | 37698 ft | 444 kts | 230° |
| 2026-05-05 18:35 | 44.68791 | 150.65981 | 37706 ft | 443 kts | 230° |
| 2026-05-05 18:36 | 44.64560 | 150.59766 | 37714 ft | 443 kts | 230° |
| 2026-05-05 18:36 | 44.60288 | 150.53516 | 37710 ft | 444 kts | 230° |
| 2026-05-05 18:37 | 44.56012 | 150.47267 | 37720 ft | 445 kts | 229° |
| 2026-05-05 18:37 | 44.51709 | 150.40995 | 37723 ft | 447 kts | 229° |
| 2026-05-05 18:38 | 44.47385 | 150.34712 | 37726 ft | 448 kts | 229° |
| 2026-05-05 18:38 | 44.43077 | 150.28462 | 37715 ft | 450 kts | 229° |
| 2026-05-05 18:39 | 44.38725 | 150.22163 | 37722 ft | 451 kts | 229° |
| 2026-05-05 18:39 | 44.34364 | 150.15864 | 37717 ft | 451 kts | 229° |
| 2026-05-05 18:40 | 44.30004 | 150.09582 | 37713 ft | 451 kts | 229° |
| 2026-05-05 18:40 | 44.25668 | 150.03351 | 37713 ft | 450 kts | 229° |
| 2026-05-05 18:41 | 44.21307 | 149.97096 | 37729 ft | 449 kts | 229° |
| 2026-05-05 18:41 | 44.16949 | 149.90859 | 37726 ft | 449 kts | 229° |
| 2026-05-05 18:42 | 44.12592 | 149.84638 | 37732 ft | 448 kts | 229° |
| 2026-05-05 18:42 | 44.08240 | 149.78437 | 37733 ft | 448 kts | 229° |
| 2026-05-05 18:43 | 44.03908 | 149.72283 | 37728 ft | 448 kts | 229° |
| 2026-05-05 18:43 | 43.99547 | 149.66096 | 37738 ft | 448 kts | 229° |
| 2026-05-05 18:44 | 43.95189 | 149.59929 | 37793 ft | 446 kts | 229° |
| 2026-05-05 18:44 | 43.90839 | 149.53785 | 37826 ft | 447 kts | 229° |
| 2026-05-05 18:45 | 43.86511 | 149.47685 | 37837 ft | 447 kts | 229° |
| 2026-05-05 18:45 | 43.82133 | 149.41531 | 37834 ft | 449 kts | 229° |
| 2026-05-05 18:46 | 43.77742 | 149.35374 | 37835 ft | 450 kts | 229° |
| 2026-05-05 18:46 | 43.73341 | 149.29216 | 37833 ft | 450 kts | 229° |
| 2026-05-05 18:47 | 43.68936 | 149.23063 | 37834 ft | 450 kts | 229° |
| 2026-05-05 18:47 | 43.64563 | 149.16972 | 37843 ft | 450 kts | 229° |
| 2026-05-05 18:48 | 43.60158 | 149.10846 | 37842 ft | 449 kts | 229° |
| 2026-05-05 18:48 | 43.55751 | 149.04734 | 37843 ft | 449 kts | 228° |
| 2026-05-05 18:49 | 43.51345 | 148.98636 | 37841 ft | 449 kts | 228° |
| 2026-05-05 18:49 | 43.46967 | 148.92591 | 37843 ft | 448 kts | 228° |
| 2026-05-05 18:50 | 43.42565 | 148.86523 | 37841 ft | 448 kts | 228° |
| 2026-05-05 18:50 | 43.38155 | 148.80459 | 37843 ft | 448 kts | 228° |
| 2026-05-05 18:51 | 43.33744 | 148.74404 | 37844 ft | 448 kts | 228° |
| 2026-05-05 18:51 | 43.29361 | 148.68403 | 37852 ft | 448 kts | 228° |
| 2026-05-05 18:52 | 43.24945 | 148.62372 | 37853 ft | 448 kts | 228° |
| 2026-05-05 18:52 | 43.20524 | 148.56344 | 37850 ft | 448 kts | 228° |
| 2026-05-05 18:53 | 43.16102 | 148.50328 | 37854 ft | 448 kts | 228° |
| 2026-05-05 18:53 | 43.11672 | 148.44316 | 37853 ft | 448 kts | 228° |
| 2026-05-05 18:54 | 43.07269 | 148.38352 | 37854 ft | 448 kts | 228° |
| 2026-05-05 18:54 | 43.02838 | 148.32364 | 37893 ft | 448 kts | 228° |
| 2026-05-05 18:55 | 42.98412 | 148.26396 | 37897 ft | 447 kts | 228° |
| 2026-05-05 18:55 | 42.93980 | 148.20431 | 37898 ft | 447 kts | 228° |
| 2026-05-05 18:56 | 42.89575 | 148.14514 | 37898 ft | 447 kts | 228° |
| 2026-05-05 18:56 | 42.85137 | 148.08566 | 37899 ft | 447 kts | 228° |
| 2026-05-05 18:57 | 42.80696 | 148.02628 | 37899 ft | 447 kts | 228° |
| 2026-05-05 18:57 | 42.76253 | 147.96701 | 37941 ft | 446 kts | 228° |
| 2026-05-05 18:58 | 42.71822 | 147.90798 | 37939 ft | 446 kts | 227° |
| 2026-05-05 18:58 | 42.67415 | 147.84943 | 37940 ft | 446 kts | 227° |
| 2026-05-05 18:59 | 42.62976 | 147.79059 | 37946 ft | 446 kts | 227° |
| 2026-05-05 18:59 | 42.58537 | 147.73184 | 37952 ft | 446 kts | 227° |
| 2026-05-05 19:00 | 42.54096 | 147.67317 | 37961 ft | 446 kts | 227° |
| 2026-05-05 19:00 | 42.49684 | 147.61505 | 37964 ft | 446 kts | 227° |
| 2026-05-05 19:01 | 42.45237 | 147.55655 | 37951 ft | 445 kts | 227° |
| 2026-05-05 19:01 | 42.40789 | 147.49816 | 37945 ft | 445 kts | 227° |
| 2026-05-05 19:02 | 42.36369 | 147.44027 | 37949 ft | 445 kts | 227° |
| 2026-05-05 19:02 | 42.31924 | 147.38205 | 37951 ft | 445 kts | 227° |
| 2026-05-05 19:03 | 42.27484 | 147.32397 | 37948 ft | 445 kts | 227° |
| 2026-05-05 19:03 | 42.23037 | 147.26594 | 37960 ft | 444 kts | 227° |
| 2026-05-05 19:04 | 42.18616 | 147.20837 | 37957 ft | 445 kts | 227° |
| 2026-05-05 19:04 | 42.14162 | 147.15049 | 37949 ft | 445 kts | 227° |
| 2026-05-05 19:05 | 42.09707 | 147.09270 | 37951 ft | 444 kts | 227° |
| 2026-05-05 19:05 | 42.05255 | 147.03507 | 37955 ft | 444 kts | 227° |
| 2026-05-05 19:06 | 42.00795 | 146.97745 | 37961 ft | 444 kts | 227° |
| 2026-05-05 19:06 | 41.96365 | 146.92033 | 37976 ft | 444 kts | 227° |
| 2026-05-05 19:07 | 41.91905 | 146.86295 | 37963 ft | 444 kts | 227° |
| 2026-05-05 19:07 | 41.87447 | 146.80570 | 37968 ft | 443 kts | 227° |
| 2026-05-05 19:08 | 41.82989 | 146.74852 | 37960 ft | 444 kts | 227° |
| 2026-05-05 19:08 | 41.78563 | 146.69183 | 37969 ft | 443 kts | 227° |
| 2026-05-05 19:09 | 41.74103 | 146.63481 | 37955 ft | 443 kts | 227° |
| 2026-05-05 19:09 | 41.69645 | 146.57792 | 37953 ft | 442 kts | 227° |
| 2026-05-05 19:10 | 41.65187 | 146.52116 | 37965 ft | 442 kts | 227° |
| 2026-05-05 19:10 | 41.60729 | 146.46452 | 37958 ft | 442 kts | 227° |
| 2026-05-05 19:11 | 41.56303 | 146.40840 | 37968 ft | 442 kts | 227° |
| 2026-05-05 19:11 | 41.51841 | 146.35192 | 37956 ft | 442 kts | 227° |
| 2026-05-05 19:12 | 41.47375 | 146.29550 | 37971 ft | 442 kts | 227° |
| 2026-05-05 19:12 | 41.42934 | 146.23952 | 37958 ft | 442 kts | 227° |
| 2026-05-05 19:13 | 41.38460 | 146.18323 | 37978 ft | 442 kts | 227° |
| 2026-05-05 19:13 | 41.33986 | 146.12709 | 37978 ft | 442 kts | 227° |
| 2026-05-05 19:14 | 41.29504 | 146.07092 | 37978 ft | 443 kts | 227° |
| 2026-05-05 19:14 | 41.25019 | 146.01480 | 37978 ft | 443 kts | 227° |
| 2026-05-05 19:15 | 41.20559 | 145.95913 | 37976 ft | 443 kts | 226° |
| 2026-05-05 19:15 | 41.16068 | 145.90321 | 37958 ft | 443 kts | 226° |
| 2026-05-05 19:16 | 41.11571 | 145.84731 | 37983 ft | 443 kts | 226° |
| 2026-05-05 19:16 | 41.07076 | 145.79152 | 37982 ft | 442 kts | 226° |
| 2026-05-05 19:17 | 41.02611 | 145.73624 | 37981 ft | 442 kts | 226° |
| 2026-05-05 19:17 | 40.98119 | 145.68073 | 37983 ft | 442 kts | 226° |
| 2026-05-05 19:18 | 40.93629 | 145.62533 | 37982 ft | 442 kts | 226° |
| 2026-05-05 19:18 | 40.89132 | 145.56997 | 37982 ft | 441 kts | 226° |
| 2026-05-05 19:19 | 40.84666 | 145.51507 | 37985 ft | 441 kts | 226° |
| 2026-05-05 19:19 | 40.80170 | 145.45998 | 37993 ft | 441 kts | 226° |
| 2026-05-05 19:20 | 40.75671 | 145.40487 | 37991 ft | 441 kts | 226° |
| 2026-05-05 19:20 | 40.71170 | 145.34987 | 37999 ft | 441 kts | 226° |
| 2026-05-05 19:21 | 40.66664 | 145.29496 | 38001 ft | 441 kts | 226° |
| 2026-05-05 19:21 | 40.62187 | 145.24048 | 37999 ft | 441 kts | 226° |
| 2026-05-05 19:22 | 40.57682 | 145.18576 | 38004 ft | 441 kts | 226° |
| 2026-05-05 19:22 | 40.53171 | 145.13103 | 38010 ft | 441 kts | 226° |
| 2026-05-05 19:23 | 40.48656 | 145.07640 | 38008 ft | 441 kts | 226° |
| 2026-05-05 19:23 | 40.44141 | 145.02185 | 38013 ft | 441 kts | 226° |
| 2026-05-05 19:24 | 40.39653 | 144.96779 | 38019 ft | 441 kts | 226° |
| 2026-05-05 19:24 | 40.35126 | 144.91342 | 38020 ft | 441 kts | 226° |
| 2026-05-05 19:25 | 40.30600 | 144.85910 | 38024 ft | 441 kts | 226° |
| 2026-05-05 19:25 | 40.26068 | 144.80487 | 38029 ft | 441 kts | 226° |
| 2026-05-05 19:26 | 40.21568 | 144.75106 | 38031 ft | 441 kts | 226° |
| 2026-05-05 19:26 | 40.17035 | 144.69698 | 38033 ft | 441 kts | 225° |
| 2026-05-05 19:27 | 40.12507 | 144.64309 | 38039 ft | 440 kts | 225° |
| 2026-05-05 19:27 | 40.07976 | 144.58923 | 38037 ft | 440 kts | 225° |
| 2026-05-05 19:28 | 40.03475 | 144.53580 | 38045 ft | 440 kts | 225° |
| 2026-05-05 19:28 | 39.98934 | 144.48202 | 38026 ft | 441 kts | 225° |
| 2026-05-05 19:29 | 39.94390 | 144.42832 | 38025 ft | 441 kts | 225° |
| 2026-05-05 19:29 | 39.89849 | 144.37473 | 38025 ft | 440 kts | 225° |
| 2026-05-05 19:30 | 39.85334 | 144.32160 | 38029 ft | 440 kts | 225° |
| 2026-05-05 19:30 | 39.80791 | 144.26819 | 38047 ft | 440 kts | 225° |
| 2026-05-05 19:31 | 39.76265 | 144.21510 | 38112 ft | 438 kts | 225° |
| 2026-05-05 19:31 | 39.71729 | 144.16198 | 38122 ft | 439 kts | 225° |
| 2026-05-05 19:32 | 39.67213 | 144.10917 | 38101 ft | 440 kts | 225° |
| 2026-05-05 19:32 | 39.62656 | 144.05601 | 38091 ft | 441 kts | 225° |
| 2026-05-05 19:33 | 39.58093 | 144.00286 | 38092 ft | 441 kts | 225° |
| 2026-05-05 19:33 | 39.53533 | 143.94987 | 38099 ft | 440 kts | 225° |
| 2026-05-05 19:34 | 39.48974 | 143.89698 | 38102 ft | 439 kts | 225° |
| 2026-05-05 19:35 | 39.42180 | 143.81834 | 38098 ft | 438 kts | 225° |
| 2026-05-05 19:35 | 39.37646 | 143.76597 | 38124 ft | 437 kts | 225° |
| 2026-05-05 19:36 | 39.33112 | 143.71368 | 38131 ft | 436 kts | 225° |
| 2026-05-05 19:36 | 39.28610 | 143.66186 | 38132 ft | 436 kts | 225° |
| 2026-05-05 19:37 | 39.24081 | 143.60983 | 38131 ft | 436 kts | 225° |
| 2026-05-05 19:37 | 39.19555 | 143.55793 | 38133 ft | 435 kts | 225° |
| 2026-05-05 19:38 | 39.15035 | 143.50619 | 38148 ft | 435 kts | 225° |
| 2026-05-05 19:38 | 39.10513 | 143.45452 | 38134 ft | 434 kts | 225° |
| 2026-05-05 19:39 | 39.06026 | 143.40333 | 38149 ft | 434 kts | 225° |
| 2026-05-05 19:39 | 39.01510 | 143.35189 | 38154 ft | 433 kts | 225° |
| 2026-05-05 19:40 | 38.96995 | 143.30055 | 38154 ft | 433 kts | 225° |
| 2026-05-05 19:40 | 38.92355 | 143.25194 | 38145 ft | 437 kts | 215° |
| 2026-05-05 19:41 | 38.86762 | 143.21978 | 38141 ft | 446 kts | 202° |
| 2026-05-05 19:41 | 38.80627 | 143.20411 | 38138 ft | 452 kts | 195° |
| 2026-05-05 19:42 | 38.74418 | 143.19122 | 38143 ft | 452 kts | 195° |
| 2026-05-05 19:42 | 38.68216 | 143.17805 | 38149 ft | 451 kts | 195° |
| 2026-05-05 19:43 | 38.62070 | 143.16457 | 38145 ft | 451 kts | 195° |
| 2026-05-05 19:43 | 38.55894 | 143.15086 | 38151 ft | 450 kts | 196° |
| 2026-05-05 19:44 | 38.49721 | 143.13716 | 38143 ft | 450 kts | 196° |
| 2026-05-05 19:44 | 38.43556 | 143.12352 | 38154 ft | 450 kts | 196° |
| 2026-05-05 19:45 | 38.37394 | 143.10993 | 38147 ft | 449 kts | 196° |
| 2026-05-05 19:45 | 38.31276 | 143.09646 | 38153 ft | 449 kts | 196° |
| 2026-05-05 19:46 | 38.25121 | 143.08293 | 38148 ft | 449 kts | 196° |
| 2026-05-05 19:46 | 38.18967 | 143.06941 | 38154 ft | 449 kts | 196° |
| 2026-05-05 19:47 | 38.12819 | 143.05594 | 38145 ft | 449 kts | 196° |
| 2026-05-05 19:47 | 38.06709 | 143.04258 | 38164 ft | 448 kts | 196° |
| 2026-05-05 19:48 | 38.00567 | 143.02918 | 38172 ft | 448 kts | 196° |
| 2026-05-05 19:48 | 37.94432 | 143.01579 | 38191 ft | 447 kts | 196° |
| 2026-05-05 19:49 | 37.88299 | 143.00243 | 38184 ft | 447 kts | 196° |
| 2026-05-05 19:49 | 37.82178 | 142.98914 | 38188 ft | 446 kts | 196° |
| 2026-05-05 19:50 | 37.76099 | 142.97595 | 38183 ft | 446 kts | 196° |
| 2026-05-05 19:50 | 37.69988 | 142.96272 | 38185 ft | 446 kts | 196° |
| 2026-05-05 19:51 | 37.63880 | 142.94951 | 38185 ft | 445 kts | 196° |
| 2026-05-05 19:51 | 37.57771 | 142.93632 | 38184 ft | 445 kts | 196° |
| 2026-05-05 19:52 | 37.51714 | 142.92327 | 38185 ft | 445 kts | 196° |
| 2026-05-05 19:52 | 37.45612 | 142.91013 | 38184 ft | 445 kts | 196° |
| 2026-05-05 19:53 | 37.39510 | 142.89704 | 38185 ft | 445 kts | 196° |
| 2026-05-05 19:53 | 37.33407 | 142.88395 | 38194 ft | 445 kts | 196° |
| 2026-05-05 19:54 | 37.27303 | 142.87087 | 38193 ft | 445 kts | 196° |
| 2026-05-05 19:54 | 37.21246 | 142.85787 | 38195 ft | 445 kts | 196° |
| 2026-05-05 19:55 | 37.15148 | 142.84426 | 38185 ft | 443 kts | 200° |
| 2026-05-05 19:55 | 37.09383 | 142.81990 | 38190 ft | 434 kts | 209° |
| 2026-05-05 19:56 | 37.04114 | 142.78590 | 37866 ft | 426 kts | 214° |
| 2026-05-05 19:56 | 37.01533 | 142.76752 | 37501 ft | 427 kts | 215° |
| 2026-05-05 19:56 | 36.98952 | 142.74907 | 37118 ft | 429 kts | 215° |
| 2026-05-05 19:56 | 36.96356 | 142.73058 | 36743 ft | 430 kts | 214° |
| 2026-05-05 19:57 | 36.93754 | 142.71214 | 36379 ft | 430 kts | 214° |
| 2026-05-05 19:57 | 36.92026 | 142.69994 | 36131 ft | 430 kts | 214° |
| 2026-05-05 19:57 | 36.88517 | 142.67521 | 35346 ft | 438 kts | 214° |
| 2026-05-05 19:57 | 36.85840 | 142.65638 | 34657 ft | 445 kts | 214° |
| 2026-05-05 19:58 | 36.83142 | 142.63748 | 34297 ft | 443 kts | 214° |
| 2026-05-05 19:58 | 36.80465 | 142.61881 | 34117 ft | 438 kts | 214° |
| 2026-05-05 19:58 | 36.77852 | 142.60057 | 33919 ft | 434 kts | 214° |
| 2026-05-05 19:58 | 36.75224 | 142.58224 | 33683 ft | 431 kts | 214° |
| 2026-05-05 19:59 | 36.72617 | 142.56402 | 33380 ft | 430 kts | 214° |
| 2026-05-05 19:59 | 36.70008 | 142.54579 | 33051 ft | 430 kts | 214° |
| 2026-05-05 19:59 | 36.67403 | 142.52759 | 32739 ft | 429 kts | 214° |
| 2026-05-05 19:59 | 36.64803 | 142.50945 | 32442 ft | 428 kts | 214° |
| 2026-05-05 20:00 | 36.62211 | 142.49142 | 32170 ft | 426 kts | 214° |
| 2026-05-05 20:00 | 36.59630 | 142.47346 | 31891 ft | 424 kts | 214° |
| 2026-05-05 20:00 | 36.57093 | 142.45585 | 31601 ft | 423 kts | 214° |
| 2026-05-05 20:00 | 36.54531 | 142.43807 | 31303 ft | 420 kts | 213° |
| 2026-05-05 20:01 | 36.51980 | 142.42033 | 30988 ft | 420 kts | 213° |
| 2026-05-05 20:01 | 36.49433 | 142.40266 | 30696 ft | 418 kts | 213° |
| 2026-05-05 20:01 | 36.47046 | 142.38616 | 30437 ft | 417 kts | 213° |
| 2026-05-05 20:01 | 36.44519 | 142.36864 | 30184 ft | 415 kts | 213° |
| 2026-05-05 20:02 | 36.42007 | 142.35121 | 29915 ft | 413 kts | 213° |
| 2026-05-05 20:02 | 36.39507 | 142.33391 | 29624 ft | 412 kts | 213° |
| 2026-05-05 20:02 | 36.37009 | 142.31664 | 29313 ft | 411 kts | 213° |
| 2026-05-05 20:02 | 36.34544 | 142.29961 | 29033 ft | 411 kts | 213° |
| 2026-05-05 20:03 | 36.32054 | 142.28242 | 28767 ft | 409 kts | 213° |
| 2026-05-05 20:03 | 36.29576 | 142.26529 | 28506 ft | 407 kts | 213° |
| 2026-05-05 20:03 | 36.27107 | 142.24822 | 28220 ft | 406 kts | 212° |
| 2026-05-05 20:03 | 36.24640 | 142.23121 | 27933 ft | 405 kts | 212° |
| 2026-05-05 20:04 | 36.22180 | 142.21419 | 27659 ft | 405 kts | 212° |
| 2026-05-05 20:04 | 36.19734 | 142.19721 | 27395 ft | 403 kts | 212° |
| 2026-05-05 20:04 | 36.17286 | 142.18030 | 27137 ft | 402 kts | 212° |
| 2026-05-05 20:04 | 36.14881 | 142.16371 | 26884 ft | 401 kts | 212° |
| 2026-05-05 20:05 | 36.12448 | 142.14693 | 26611 ft | 400 kts | 212° |
| 2026-05-05 20:05 | 36.10020 | 142.13019 | 26347 ft | 399 kts | 212° |
| 2026-05-05 20:05 | 36.07598 | 142.11351 | 26087 ft | 398 kts | 212° |
| 2026-05-05 20:05 | 36.05181 | 142.09686 | 25834 ft | 397 kts | 212° |
| 2026-05-05 20:06 | 36.02769 | 142.08020 | 25396 ft | 398 kts | 212° |
| 2026-05-05 20:06 | 36.00354 | 142.06348 | 24813 ft | 398 kts | 212° |
| 2026-05-05 20:06 | 35.97950 | 142.04685 | 24245 ft | 396 kts | 212° |
| 2026-05-05 20:06 | 35.95541 | 142.03021 | 23664 ft | 395 kts | 211° |
| 2026-05-05 20:07 | 35.93181 | 142.01392 | 23102 ft | 394 kts | 211° |
| 2026-05-05 20:07 | 35.90788 | 141.99741 | 22535 ft | 393 kts | 211° |
| 2026-05-05 20:07 | 35.88400 | 141.98093 | 21836 ft | 395 kts | 211° |
| 2026-05-05 20:07 | 35.85995 | 141.96436 | 21193 ft | 396 kts | 211° |
| 2026-05-05 20:08 | 35.83595 | 141.94785 | 20624 ft | 394 kts | 210° |
| 2026-05-05 20:08 | 35.81376 | 141.92916 | 20052 ft | 385 kts | 225° |
| 2026-05-05 20:08 | 35.79803 | 141.90291 | 19556 ft | 380 kts | 242° |
| 2026-05-05 20:08 | 35.78847 | 141.87275 | 19042 ft | 378 kts | 257° |
| 2026-05-05 20:09 | 35.78471 | 141.84129 | 18571 ft | 375 kts | 263° |
| 2026-05-05 20:09 | 35.78192 | 141.80943 | 18063 ft | 373 kts | 263° |
| 2026-05-05 20:09 | 35.77882 | 141.77777 | 17562 ft | 371 kts | 262° |
| 2026-05-05 20:09 | 35.77622 | 141.74620 | 17069 ft | 370 kts | 266° |
| 2026-05-05 20:10 | 35.77536 | 141.71464 | 16575 ft | 368 kts | 268° |
| 2026-05-05 20:10 | 35.77495 | 141.68323 | 16102 ft | 366 kts | 268° |
| 2026-05-05 20:10 | 35.77457 | 141.65198 | 15607 ft | 364 kts | 268° |
| 2026-05-05 20:10 | 35.77410 | 141.62087 | 15120 ft | 362 kts | 268° |
| 2026-05-05 20:11 | 35.77354 | 141.58999 | 14661 ft | 360 kts | 268° |
| 2026-05-05 20:11 | 35.77295 | 141.56008 | 14518 ft | 348 kts | 268° |
| 2026-05-05 20:11 | 35.77234 | 141.53068 | 14355 ft | 338 kts | 268° |
| 2026-05-05 20:11 | 35.77173 | 141.50219 | 14214 ft | 328 kts | 268° |
| 2026-05-05 20:12 | 35.77113 | 141.47458 | 14073 ft | 318 kts | 268° |
| 2026-05-05 20:12 | 35.77052 | 141.44780 | 13898 ft | 309 kts | 268° |
| 2026-05-05 20:12 | 35.76988 | 141.42141 | 13581 ft | 307 kts | 268° |
| 2026-05-05 20:12 | 35.76922 | 141.39518 | 13197 ft | 306 kts | 268° |
| 2026-05-05 20:13 | 35.76857 | 141.36901 | 12833 ft | 305 kts | 268° |
| 2026-05-05 20:13 | 35.76792 | 141.34327 | 12468 ft | 304 kts | 268° |
| 2026-05-05 20:13 | 35.76728 | 141.31732 | 12104 ft | 304 kts | 268° |
| 2026-05-05 20:13 | 35.76662 | 141.29139 | 11750 ft | 302 kts | 268° |
| 2026-05-05 20:14 | 35.76597 | 141.26561 | 11425 ft | 300 kts | 268° |
| 2026-05-05 20:14 | 35.76530 | 141.23993 | 11075 ft | 299 kts | 268° |
| 2026-05-05 20:14 | 35.76464 | 141.21437 | 10696 ft | 299 kts | 268° |
| 2026-05-05 20:14 | 35.76416 | 141.18915 | 10443 ft | 294 kts | 269° |
| 2026-05-05 20:15 | 35.76415 | 141.16405 | 10243 ft | 288 kts | 269° |
| 2026-05-05 20:15 | 35.76422 | 141.14006 | 10083 ft | 280 kts | 269° |
| 2026-05-05 20:15 | 35.76426 | 141.11623 | 9816 ft | 277 kts | 269° |
| 2026-05-05 20:15 | 35.76426 | 141.09263 | 9484 ft | 276 kts | 269° |
| 2026-05-05 20:16 | 35.76423 | 141.06905 | 9192 ft | 273 kts | 269° |
| 2026-05-05 20:16 | 35.76420 | 141.04589 | 9063 ft | 268 kts | 269° |
| 2026-05-05 20:16 | 35.76479 | 141.02293 | 8922 ft | 270 kts | 279° |
| 2026-05-05 20:16 | 35.77201 | 141.00144 | 8805 ft | 276 kts | 300° |
| 2026-05-05 20:17 | 35.78194 | 140.98092 | 8722 ft | 281 kts | 299° |
| 2026-05-05 20:17 | 35.79182 | 140.96017 | 8594 ft | 280 kts | 299° |
| 2026-05-05 20:17 | 35.80146 | 140.93980 | 8465 ft | 278 kts | 299° |
| 2026-05-05 20:17 | 35.81114 | 140.91927 | 8342 ft | 276 kts | 299° |
| 2026-05-05 20:18 | 35.82069 | 140.89895 | 8258 ft | 272 kts | 299° |
| 2026-05-05 20:18 | 35.83008 | 140.87890 | 8171 ft | 269 kts | 299° |
| 2026-05-05 20:18 | 35.83941 | 140.85897 | 8090 ft | 268 kts | 298° |
| 2026-05-05 20:18 | 35.84878 | 140.83887 | 8029 ft | 272 kts | 298° |
| 2026-05-05 20:19 | 35.85825 | 140.81855 | 7972 ft | 274 kts | 298° |
| 2026-05-05 20:19 | 35.86774 | 140.79818 | 7892 ft | 274 kts | 298° |
| 2026-05-05 20:19 | 35.87722 | 140.77783 | 7814 ft | 273 kts | 298° |
| 2026-05-05 20:19 | 35.88653 | 140.75781 | 7741 ft | 273 kts | 298° |
| 2026-05-05 20:20 | 35.89596 | 140.73753 | 7664 ft | 272 kts | 298° |
| 2026-05-05 20:20 | 35.90536 | 140.71729 | 7591 ft | 272 kts | 298° |
| 2026-05-05 20:20 | 35.91473 | 140.69708 | 7516 ft | 271 kts | 298° |
| 2026-05-05 20:20 | 35.92408 | 140.67690 | 7440 ft | 271 kts | 298° |
| 2026-05-05 20:21 | 35.93341 | 140.65679 | 7363 ft | 270 kts | 298° |
| 2026-05-05 20:21 | 35.94274 | 140.63664 | 7290 ft | 270 kts | 298° |
| 2026-05-05 20:21 | 35.95206 | 140.61650 | 7213 ft | 270 kts | 298° |
| 2026-05-05 20:21 | 35.96122 | 140.59669 | 7137 ft | 269 kts | 298° |
| 2026-05-05 20:22 | 35.97047 | 140.57669 | 7058 ft | 269 kts | 298° |
| 2026-05-05 20:22 | 35.97972 | 140.55669 | 6982 ft | 268 kts | 298° |
| 2026-05-05 20:22 | 35.98946 | 140.53703 | 6915 ft | 268 kts | 304° |
| 2026-05-05 20:22 | 36.00056 | 140.51850 | 6840 ft | 268 kts | 306° |
| 2026-05-05 20:23 | 36.01194 | 140.50025 | 6764 ft | 268 kts | 306° |
| 2026-05-05 20:23 | 36.02326 | 140.48201 | 6690 ft | 268 kts | 306° |
| 2026-05-05 20:23 | 36.03452 | 140.46373 | 6616 ft | 267 kts | 306° |
| 2026-05-05 20:23 | 36.04570 | 140.44542 | 6542 ft | 267 kts | 306° |
| 2026-05-05 20:24 | 36.05687 | 140.42706 | 6453 ft | 267 kts | 306° |
| 2026-05-05 20:24 | 36.06787 | 140.40892 | 6393 ft | 267 kts | 305° |
| 2026-05-05 20:24 | 36.07899 | 140.39054 | 6314 ft | 267 kts | 305° |
| 2026-05-05 20:24 | 36.09005 | 140.37222 | 6247 ft | 266 kts | 305° |
| 2026-05-05 20:25 | 36.10110 | 140.35389 | 6165 ft | 266 kts | 305° |
| 2026-05-05 20:25 | 36.11213 | 140.33555 | 6081 ft | 265 kts | 304° |
| 2026-05-05 20:25 | 36.11982 | 140.31552 | 5961 ft | 257 kts | 276° |
| 2026-05-05 20:25 | 36.12005 | 140.29367 | 5923 ft | 257 kts | 267° |
| 2026-05-05 20:26 | 36.11975 | 140.27124 | 5886 ft | 264 kts | 268° |
| 2026-05-05 20:26 | 36.11961 | 140.24856 | 5801 ft | 263 kts | 268° |
| 2026-05-05 20:26 | 36.11946 | 140.22605 | 5716 ft | 262 kts | 268° |
| 2026-05-05 20:26 | 36.11706 | 140.20451 | 5548 ft | 257 kts | 246° |
| 2026-05-05 20:27 | 36.10646 | 140.18697 | 5258 ft | 257 kts | 216° |
| 2026-05-05 20:27 | 36.09053 | 140.17794 | 5120 ft | 251 kts | 192° |
| 2026-05-05 20:27 | 36.07338 | 140.17607 | 4990 ft | 247 kts | 180° |
| 2026-05-05 20:27 | 36.05623 | 140.17636 | 4880 ft | 244 kts | 179° |
| 2026-05-05 20:28 | 36.03967 | 140.17763 | 4723 ft | 234 kts | 167° |
| 2026-05-05 20:28 | 36.02534 | 140.18574 | 4610 ft | 220 kts | 149° |
| 2026-05-05 20:28 | 36.01271 | 140.19515 | 4508 ft | 210 kts | 151° |
| 2026-05-05 20:28 | 36.00020 | 140.20413 | 4422 ft | 207 kts | 151° |
| 2026-05-05 20:29 | 35.98806 | 140.21293 | 4371 ft | 197 kts | 151° |
| 2026-05-05 20:29 | 35.97646 | 140.22138 | 4252 ft | 189 kts | 151° |
| 2026-05-05 20:29 | 35.96537 | 140.22947 | 4188 ft | 180 kts | 151° |
| 2026-05-05 20:29 | 35.95479 | 140.23719 | 4087 ft | 173 kts | 151° |
| 2026-05-05 20:30 | 35.94473 | 140.24451 | 3935 ft | 165 kts | 151° |
| 2026-05-05 20:30 | 35.93493 | 140.25166 | 3681 ft | 162 kts | 152° |
| 2026-05-05 20:30 | 35.92528 | 140.25876 | 3517 ft | 161 kts | 151° |
| 2026-05-05 20:30 | 35.91574 | 140.26574 | 3315 ft | 163 kts | 152° |
| 2026-05-05 20:31 | 35.90600 | 140.27279 | 3119 ft | 160 kts | 152° |
| 2026-05-05 20:31 | 35.89643 | 140.27977 | 2897 ft | 159 kts | 152° |
| 2026-05-05 20:31 | 35.88684 | 140.28671 | 2676 ft | 161 kts | 151° |
| 2026-05-05 20:31 | 35.87720 | 140.29372 | 2456 ft | 161 kts | 151° |
| 2026-05-05 20:32 | 35.86762 | 140.30070 | 2230 ft | 158 kts | 151° |
| 2026-05-05 20:32 | 35.85816 | 140.30757 | 2076 ft | 160 kts | 150° |
| 2026-05-05 20:32 | 35.84845 | 140.31460 | 1849 ft | 163 kts | 150° |
| 2026-05-05 20:32 | 35.83890 | 140.32154 | 1631 ft | 154 kts | 150° |
| 2026-05-05 20:33 | 35.82987 | 140.32811 | 1379 ft | 151 kts | 150° |
| 2026-05-05 20:33 | 35.82086 | 140.33466 | 1193 ft | 151 kts | 150° |
| 2026-05-05 20:33 | 35.81169 | 140.34125 | 1018 ft | 154 kts | 149° |
| 2026-05-05 20:33 | 35.80246 | 140.34800 | 803 ft | 154 kts | 150° |
| 2026-05-05 20:34 | 35.79324 | 140.35472 | 617 ft | 154 kts | 149° |
| 2026-05-05 20:34 | 35.78402 | 140.36137 | 394 ft | 153 kts | 150° |
| 2026-05-05 20:34 | 35.77484 | 140.36800 | 214 ft | 152 kts | 149° |
| 2026-05-05 20:34 | 35.76608 | 140.37430 | 152 ft | 134 kts | 149° |
| 2026-05-05 20:35 | 35.75965 | 140.37894 | 150 ft | 81 kts | 149° |
| 2026-05-05 20:35 | 35.75658 | 140.38118 | 152 ft | 23 kts | 144° |
| 2026-05-05 20:35 | 35.75544 | 140.38253 | 150 ft | 23 kts | 126° |
| 2026-05-05 20:35 | 35.75463 | 140.38420 | 150 ft | 23 kts | 120° |
| 2026-05-05 20:36 | 35.75405 | 140.38541 | 149 ft | 12 kts | 127° |
| 2026-05-05 20:36 | 35.75336 | 140.38604 | 149 ft | 12 kts | 147° |
| 2026-05-05 20:36 | 35.75332 | 140.38667 | 149 ft | 9 kts | 47° |
| 2026-05-05 20:36 | 35.75387 | 140.38703 | 149 ft | 9 kts | 24° |
| 2026-05-05 20:37 | 35.75448 | 140.38735 | 149 ft | 8 kts | 21° |
| 2026-05-05 20:37 | 35.75484 | 140.38736 | 149 ft | 8 kts | 348° |
| 2026-05-05 20:37 | 35.75560 | 140.38686 | 149 ft | 13 kts | 329° |
| 2026-05-05 20:37 | 35.75638 | 140.38630 | 149 ft | 11 kts | 330° |
| 2026-05-05 20:38 | 35.75692 | 140.38604 | 149 ft | 7 kts | 0° |
| 2026-05-05 20:38 | 35.75745 | 140.38619 | 149 ft | 8 kts | 13° |
| 2026-05-05 20:38 | 35.75796 | 140.38634 | 149 ft | 5 kts | 13° |
| 2026-05-05 20:38 | 35.75821 | 140.38642 | 149 ft | 2 kts | 13° |
| 2026-05-05 20:39 | 35.75827 | 140.38643 | 149 ft | 0 kts | 13° |